Observation data for Fritch on 07/03/2020      Previous  Date  Next       Current Mesonet Observations  Soil Data  Daily Summary Page  Observations in Plain Language
KFR1 030500Z 16017G23KT 26/14 A3005 RMK A01 T02560138  RH  048%=      5-min Rain = 0
KFR1 030501Z 16013KT 26/14 A3005 RMK A01 T02560138  RH  048%=      5-min Rain = 0
KFR1 030502Z 16016KT 26/14 A3005 RMK A01 T02560138  RH  048%=      5-min Rain = 0
KFR1 030503Z 16015KT 26/14 A3005 RMK A01 T02560139  RH  048%=      5-min Rain = 0
KFR1 030504Z 16016G22KT 26/14 A3005 RMK A01 T02550139  RH  048%=      5-min Rain = 0
KFR1 030505Z 16017KT 26/14 A3005 RMK A01 T02550139  RH  049%=      5-min Rain = 0
KFR1 030506Z 16013G18KT 26/14 A3005 RMK A01 T02550139  RH  049%=      5-min Rain = 0
KFR1 030507Z 16014KT 26/14 A3005 RMK A01 T02550139  RH  049%=      5-min Rain = 0
KFR1 030508Z 16014KT 26/14 A3005 RMK A01 T02550139  RH  049%=      5-min Rain = 0
KFR1 030509Z 16017KT 26/14 A3005 RMK A01 T02550139  RH  049%=      5-min Rain = 0
KFR1 030510Z 16017KT 26/14 A3005 RMK A01 T02550138  RH  048%=      5-min Rain = 0
KFR1 030511Z 17015G20KT 26/14 A3005 RMK A01 T02560139  RH  048%=      5-min Rain = 0
KFR1 030512Z 16015G20KT 26/14 A3005 RMK A01 T02570139  RH  048%=      5-min Rain = 0
KFR1 030513Z 16017KT 26/14 A3005 RMK A01 T02570138  RH  048%=      5-min Rain = 0
KFR1 030514Z 16015KT 26/14 A3005 RMK A01 T02580139  RH  048%=      5-min Rain = 0
KFR1 030515Z 16018KT 26/14 A3005 RMK A01 T02580139  RH  048%=      5-min Rain = 0
KFR1 030516Z 16015KT 26/14 A3005 RMK A01 T02590139  RH  048%=      5-min Rain = 0
KFR1 030517Z 16015KT 26/14 A3005 RMK A01 T02590140  RH  048%=      5-min Rain = 0
KFR1 030518Z 17014G20KT 26/14 A3005 RMK A01 T02600140  RH  048%=      5-min Rain = 0
KFR1 030519Z 17013KT 26/14 A3005 RMK A01 T02600140  RH  048%=      5-min Rain = 0
KFR1 030520Z 17014G19KT 26/14 A3005 RMK A01 T02600140  RH  048%=      5-min Rain = 0
KFR1 030521Z 17015KT 26/14 A3005 RMK A01 T02600140  RH  048%=      5-min Rain = 0
KFR1 030522Z 17013KT 26/14 A3005 RMK A01 T02600140  RH  048%=      5-min Rain = 0
KFR1 030523Z 17015KT 26/14 A3005 RMK A01 T02600140  RH  048%=      5-min Rain = 0
KFR1 030524Z 17011G16KT 26/14 A3005 RMK A01 T02600140  RH  048%=      5-min Rain = 0
KFR1 030525Z 17014KT 26/14 A3005 RMK A01 T02590140  RH  048%=      5-min Rain = 0
KFR1 030526Z 17015KT 26/14 A3005 RMK A01 T02590140  RH  048%=      5-min Rain = 0
KFR1 030527Z 17013KT 26/14 A3005 RMK A01 T02590140  RH  048%=      5-min Rain = 0
KFR1 030528Z 17014KT 26/14 A3005 RMK A01 T02600140  RH  048%=      5-min Rain = 0
KFR1 030529Z 17010KT 26/14 A3005 RMK A01 T02600141  RH  048%=      5-min Rain = 0
KFR1 030530Z 17011KT 26/14 A3005 RMK A01 T02600140  RH  048%=      5-min Rain = 0
KFR1 030531Z 17012KT 26/14 A3005 RMK A01 T02600140  RH  047%=      5-min Rain = 0
KFR1 030532Z 17012KT 26/14 A3005 RMK A01 T02600140  RH  047%=      5-min Rain = 0
KFR1 030533Z 17013G18KT 26/14 A3005 RMK A01 T02600138  RH  047%=      5-min Rain = 0
KFR1 030534Z 17011G16KT 26/14 A3005 RMK A01 T02610138  RH  047%=      5-min Rain = 0
KFR1 030535Z 17010G15KT 26/14 A3005 RMK A01 T02610138  RH  047%=      5-min Rain = 0
KFR1 030536Z 17013KT 26/14 A3005 RMK A01 T02610137  RH  046%=      5-min Rain = 0
KFR1 030537Z 17010KT 26/14 A3005 RMK A01 T02610137  RH  046%=      5-min Rain = 0
KFR1 030538Z 18008KT 26/14 A3005 RMK A01 T02610137  RH  046%=      5-min Rain = 0
KFR1 030539Z 18011KT 26/14 A3005 RMK A01 T02610138  RH  046%=      5-min Rain = 0
KFR1 030540Z 18012KT 26/14 A3005 RMK A01 T02610137  RH  046%=      5-min Rain = 0
KFR1 030541Z 19007KT 26/14 A3005 RMK A01 T02610137  RH  046%=      5-min Rain = 0
KFR1 030542Z 19008KT 26/14 A3005 RMK A01 T02610137  RH  046%=      5-min Rain = 0
KFR1 030543Z 19011KT 26/14 A3005 RMK A01 T02610137  RH  046%=      5-min Rain = 0
KFR1 030544Z 19008KT 26/14 A3005 RMK A01 T02620136  RH  046%=      5-min Rain = 0
KFR1 030545Z 21007KT 26/14 A3005 RMK A01 T02630137  RH  046%=      5-min Rain = 0
KFR1 030546Z 20007KT 26/14 A3005 RMK A01 T02620137  RH  046%=      5-min Rain = 0
KFR1 030547Z 22006KT 26/14 A3005 RMK A01 T02620136  RH  046%=      5-min Rain = 0
KFR1 030548Z 22006KT 26/14 A3005 RMK A01 T02620136  RH  046%=      5-min Rain = 0
KFR1 030549Z 22006KT 26/14 A3005 RMK A01 T02620136  RH  046%=      5-min Rain = 0
KFR1 030550Z 22006KT 26/14 A3005 RMK A01 T02610136  RH  046%=      5-min Rain = 0
KFR1 030551Z 22006KT 26/14 A3005 RMK A01 T02600135  RH  046%=      5-min Rain = 0
KFR1 030552Z 21006KT 26/14 A3005 RMK A01 T02600135  RH  046%=      5-min Rain = 0
KFR1 030553Z 21006KT 26/13 A3005 RMK A01 T02610133  RH  045%=      5-min Rain = 0
KFR1 030554Z 22006KT 26/13 A3005 RMK A01 T02620133  RH  045%=      5-min Rain = 0
KFR1 030555Z 22006KT 26/13 A3005 RMK A01 T02630133  RH  045%=      5-min Rain = 0
KFR1 030556Z 22005KT 26/13 A3005 RMK A01 T02630134  RH  045%=      5-min Rain = 0
KFR1 030557Z 21004KT 26/14 A3005 RMK A01 T02630135  RH  045%=      5-min Rain = 0
KFR1 030558Z 26004KT 26/14 A3005 RMK A01 T02610139  RH  047%=      5-min Rain = 0
KFR1 030559Z 25004KT 26/14 A3005 RMK A01 T02580142  RH  049%=      5-min Rain = 0
KFR1 030600Z 24004KT 26/14 A3005 RMK A01 T02560142  RH  049%=      5-min Rain = 0
KFR1 030601Z 23004KT 25/14 A3005 RMK A01 T02540142  RH  050%=      5-min Rain = 0
KFR1 030602Z 23004KT 25/14 A3005 RMK A01 T02530141  RH  050%=      5-min Rain = 0
KFR1 030603Z 23004KT 25/14 A3005 RMK A01 T02520141  RH  050%=      5-min Rain = 0
KFR1 030604Z 23004KT 25/14 A3005 RMK A01 T02520141  RH  050%=      5-min Rain = 0
KFR1 030605Z 23005KT 25/14 A3005 RMK A01 T02510140  RH  050%=      5-min Rain = 0
KFR1 030606Z 22004KT 25/14 A3005 RMK A01 T02510140  RH  050%=      5-min Rain = 0
KFR1 030607Z 23004KT 25/14 A3005 RMK A01 T02510140  RH  050%=      5-min Rain = 0
KFR1 030608Z 23005KT 25/14 A3005 RMK A01 T02510139  RH  050%=      5-min Rain = 0
KFR1 030609Z 23004KT 25/14 A3005 RMK A01 T02510139  RH  050%=      5-min Rain = 0
KFR1 030610Z 23004KT 25/14 A3005 RMK A01 T02520139  RH  050%=      5-min Rain = 0
KFR1 030611Z 22005KT 25/14 A3005 RMK A01 T02520140  RH  050%=      5-min Rain = 0
KFR1 030612Z 22005KT 25/14 A3005 RMK A01 T02520139  RH  049%=      5-min Rain = 0
KFR1 030613Z 20005KT 25/14 A3005 RMK A01 T02530140  RH  049%=      5-min Rain = 0
KFR1 030614Z 21004KT 25/14 A3005 RMK A01 T02530139  RH  049%=      5-min Rain = 0
KFR1 030615Z 20005KT 25/14 A3005 RMK A01 T02540139  RH  049%=      5-min Rain = 0
KFR1 030616Z 19005KT 25/14 A3005 RMK A01 T02540140  RH  049%=      5-min Rain = 0
KFR1 030617Z 20004KT 26/14 A3005 RMK A01 T02550140  RH  049%=      5-min Rain = 0
KFR1 030618Z 21004KT 26/14 A3005 RMK A01 T02550139  RH  049%=      5-min Rain = 0
KFR1 030619Z 21004KT 26/14 A3005 RMK A01 T02560140  RH  049%=      5-min Rain = 0
KFR1 030620Z 20004KT 26/14 A3005 RMK A01 T02560140  RH  049%=      5-min Rain = 0
KFR1 030621Z 20006KT 26/14 A3005 RMK A01 T02560141  RH  049%=      5-min Rain = 0
KFR1 030622Z 19005KT 26/14 A3005 RMK A01 T02560142  RH  049%=      5-min Rain = 0
KFR1 030623Z 20005KT 26/14 A3005 RMK A01 T02570143  RH  049%=      5-min Rain = 0
KFR1 030624Z 19005KT 26/14 A3005 RMK A01 T02560143  RH  050%=      5-min Rain = 0
KFR1 030625Z 20005KT 26/15 A3005 RMK A01 T02560145  RH  050%=      5-min Rain = 0
KFR1 030626Z 21005KT 26/15 A3005 RMK A01 T02560145  RH  050%=      5-min Rain = 0
KFR1 030627Z 21005KT 26/15 A3005 RMK A01 T02570146  RH  050%=      5-min Rain = 0
KFR1 030628Z 21007KT 26/15 A3005 RMK A01 T02570146  RH  050%=      5-min Rain = 0
KFR1 030629Z 22006KT 26/15 A3005 RMK A01 T02570146  RH  050%=      5-min Rain = 0
KFR1 030630Z 22006KT 26/15 A3005 RMK A01 T02560147  RH  051%=      5-min Rain = 0
KFR1 030631Z 21005KT 26/15 A3005 RMK A01 T02550148  RH  051%=      5-min Rain = 0
KFR1 030632Z 22005KT 26/15 A3005 RMK A01 T02550148  RH  052%=      5-min Rain = 0
KFR1 030633Z 22006KT 26/15 A3005 RMK A01 T02550147  RH  051%=      5-min Rain = 0
KFR1 030634Z 22006KT 26/15 A3005 RMK A01 T02560148  RH  051%=      5-min Rain = 0
KFR1 030635Z 22005KT 26/15 A3005 RMK A01 T02560147  RH  051%=      5-min Rain = 0
KFR1 030636Z 22005KT 26/15 A3005 RMK A01 T02560148  RH  051%=      5-min Rain = 0
KFR1 030637Z 24005KT 26/15 A3005 RMK A01 T02560148  RH  051%=      5-min Rain = 0
KFR1 030638Z 22006KT 25/15 A3005 RMK A01 T02540147  RH  051%=      5-min Rain = 0
KFR1 030639Z 22006KT 25/15 A3005 RMK A01 T02530149  RH  052%=      5-min Rain = 0
KFR1 030640Z 22006KT 25/15 A3005 RMK A01 T02530149  RH  053%=      5-min Rain = 0
KFR1 030641Z 22007KT 25/15 A3005 RMK A01 T02520150  RH  053%=      5-min Rain = 0
KFR1 030642Z 22007KT 25/15 A3005 RMK A01 T02530152  RH  054%=      5-min Rain = 0
KFR1 030643Z 22007KT 26/15 A3005 RMK A01 T02550152  RH  053%=      5-min Rain = 0
KFR1 030644Z 22008KT 26/15 A3005 RMK A01 T02550153  RH  053%=      5-min Rain = 0
KFR1 030645Z 22007KT 26/16 A3005 RMK A01 T02550155  RH  054%=      5-min Rain = 0
KFR1 030646Z 22007KT 26/16 A3005 RMK A01 T02550155  RH  054%=      5-min Rain = 0
KFR1 030647Z 22007KT 25/16 A3005 RMK A01 T02540157  RH  055%=      5-min Rain = 0
KFR1 030648Z 21007KT 25/16 A3004 RMK A01 T02540158  RH  055%=      5-min Rain = 0
KFR1 030649Z 21008KT 25/16 A3004 RMK A01 T02540158  RH  055%=      5-min Rain = 0
KFR1 030650Z 20008KT 26/16 A3004 RMK A01 T02550159  RH  055%=      5-min Rain = 0
KFR1 030651Z 20008KT 26/16 A3004 RMK A01 T02550160  RH  056%=      5-min Rain = 0
KFR1 030652Z 21007KT 26/16 A3004 RMK A01 T02550160  RH  056%=      5-min Rain = 0
KFR1 030653Z 21007KT 26/16 A3004 RMK A01 T02550161  RH  056%=      5-min Rain = 0
KFR1 030654Z 21007KT 26/16 A3004 RMK A01 T02550161  RH  056%=      5-min Rain = 0
KFR1 030655Z 21008KT 26/16 A3004 RMK A01 T02550161  RH  056%=      5-min Rain = 0
KFR1 030656Z 21007KT 26/16 A3004 RMK A01 T02550162  RH  056%=      5-min Rain = 0
KFR1 030657Z 21007KT 25/16 A3004 RMK A01 T02540162  RH  057%=      5-min Rain = 0
KFR1 030658Z 20007KT 25/16 A3004 RMK A01 T02540162  RH  057%=      5-min Rain = 0
KFR1 030659Z 20009KT 25/16 A3004 RMK A01 T02530162  RH  057%=      5-min Rain = 0
KFR1 030700Z 21008KT 25/16 A3004 RMK A01 T02530163  RH  058%=      5-min Rain = 0
KFR1 030701Z 20007KT 25/16 A3004 RMK A01 T02530163  RH  057%=      5-min Rain = 0
KFR1 030702Z 21007KT 25/16 A3004 RMK A01 T02530163  RH  058%=      5-min Rain = 0
KFR1 030703Z 21008KT 25/16 A3004 RMK A01 T02520163  RH  058%=      5-min Rain = 0
KFR1 030704Z 21008KT 25/16 A3004 RMK A01 T02520163  RH  058%=      5-min Rain = 0
KFR1 030705Z 21007KT 25/16 A3004 RMK A01 T02510163  RH  058%=      5-min Rain = 0
KFR1 030706Z 21008KT 25/16 A3004 RMK A01 T02510163  RH  058%=      5-min Rain = 0
KFR1 030707Z 21008KT 25/16 A3004 RMK A01 T02510163  RH  058%=      5-min Rain = 0
KFR1 030708Z 21008KT 25/16 A3004 RMK A01 T02510163  RH  058%=      5-min Rain = 0
KFR1 030709Z 21006KT 25/16 A3004 RMK A01 T02500163  RH  058%=      5-min Rain = 0
KFR1 030710Z 21007KT 25/16 A3004 RMK A01 T02500163  RH  058%=      5-min Rain = 0
KFR1 030711Z 21007KT 25/16 A3004 RMK A01 T02490163  RH  059%=      5-min Rain = 0
KFR1 030712Z 22007KT 25/16 A3004 RMK A01 T02480163  RH  059%=      5-min Rain = 0
KFR1 030713Z 22007KT 25/16 A3004 RMK A01 T02470163  RH  059%=      5-min Rain = 0
KFR1 030714Z 22006KT 25/16 A3004 RMK A01 T02470163  RH  059%=      5-min Rain = 0
KFR1 030715Z 23008KT 25/16 A3004 RMK A01 T02460162  RH  060%=      5-min Rain = 0
KFR1 030716Z 22008KT 25/16 A3004 RMK A01 T02450162  RH  060%=      5-min Rain = 0
KFR1 030717Z 23008KT 25/16 A3004 RMK A01 T02450162  RH  060%=      5-min Rain = 0
KFR1 030718Z 23007KT 25/16 A3004 RMK A01 T02450162  RH  060%=      5-min Rain = 0
KFR1 030719Z 23006KT 24/16 A3004 RMK A01 T02440161  RH  060%=      5-min Rain = 0
KFR1 030720Z 23006KT 24/16 A3004 RMK A01 T02430161  RH  060%=      5-min Rain = 0
KFR1 030721Z 22007KT 24/16 A3003 RMK A01 T02420161  RH  060%=      5-min Rain = 0
KFR1 030722Z 22008KT 24/16 A3003 RMK A01 T02420162  RH  061%=      5-min Rain = 0
KFR1 030723Z 22008KT 24/16 A3003 RMK A01 T02420163  RH  061%=      5-min Rain = 0
KFR1 030724Z 21007KT 24/16 A3003 RMK A01 T02420163  RH  061%=      5-min Rain = 0
KFR1 030725Z 20007KT 24/16 A3003 RMK A01 T02430164  RH  061%=      5-min Rain = 0
KFR1 030726Z 21009KT 24/17 A3003 RMK A01 T02430165  RH  062%=      5-min Rain = 0
KFR1 030727Z 20008KT 24/17 A3003 RMK A01 T02430165  RH  062%=      5-min Rain = 0
KFR1 030728Z 20008KT 24/17 A3003 RMK A01 T02430165  RH  062%=      5-min Rain = 0
KFR1 030729Z 20010KT 24/17 A3003 RMK A01 T02430166  RH  062%=      5-min Rain = 0
KFR1 030730Z 20010KT 24/17 A3003 RMK A01 T02430167  RH  062%=      5-min Rain = 0
KFR1 030731Z 19010KT 24/17 A3003 RMK A01 T02430167  RH  063%=      5-min Rain = 0
KFR1 030732Z 19011KT 24/17 A3003 RMK A01 T02430167  RH  063%=      5-min Rain = 0
KFR1 030733Z 18011KT 24/17 A3003 RMK A01 T02430168  RH  063%=      5-min Rain = 0
KFR1 030734Z 18011KT 24/17 A3003 RMK A01 T02430168  RH  063%=      5-min Rain = 0
KFR1 030735Z 19010KT 24/17 A3003 RMK A01 T02430169  RH  063%=      5-min Rain = 0
KFR1 030736Z 19010KT 24/17 A3003 RMK A01 T02430169  RH  063%=      5-min Rain = 0
KFR1 030737Z 19010KT 24/17 A3003 RMK A01 T02420169  RH  064%=      5-min Rain = 0
KFR1 030738Z 20009KT 24/17 A3003 RMK A01 T02410169  RH  064%=      5-min Rain = 0
KFR1 030739Z 19009KT 24/17 A3003 RMK A01 T02410169  RH  064%=      5-min Rain = 0
KFR1 030740Z 19009KT 24/17 A3003 RMK A01 T02410169  RH  064%=      5-min Rain = 0
KFR1 030741Z 19009KT 24/17 A3003 RMK A01 T02400169  RH  064%=      5-min Rain = 0
KFR1 030742Z 20008KT 24/17 A3003 RMK A01 T02400169  RH  065%=      5-min Rain = 0
KFR1 030743Z 20007KT 24/17 A3003 RMK A01 T02400169  RH  065%=      5-min Rain = 0
KFR1 030744Z 20007KT 24/17 A3003 RMK A01 T02390170  RH  065%=      5-min Rain = 0
KFR1 030745Z 20006KT 24/17 A3003 RMK A01 T02390169  RH  065%=      5-min Rain = 0
KFR1 030746Z 20007KT 24/17 A3003 RMK A01 T02390170  RH  065%=      5-min Rain = 0
KFR1 030747Z 20006KT 24/17 A3004 RMK A01 T02380169  RH  065%=      5-min Rain = 0
KFR1 030748Z 19006KT 24/17 A3004 RMK A01 T02380169  RH  066%=      5-min Rain = 0
KFR1 030749Z 19007KT 24/17 A3004 RMK A01 T02370170  RH  066%=      5-min Rain = 0
KFR1 030750Z 19006KT 24/17 A3004 RMK A01 T02370170  RH  066%=      5-min Rain = 0
KFR1 030751Z 19005KT 24/17 A3004 RMK A01 T02360169  RH  066%=      5-min Rain = 0
KFR1 030752Z 19005KT 24/17 A3004 RMK A01 T02360170  RH  066%=      5-min Rain = 0
KFR1 030753Z 19005KT 24/17 A3004 RMK A01 T02350170  RH  067%=      5-min Rain = 0
KFR1 030754Z 20005KT 24/17 A3004 RMK A01 T02350170  RH  067%=      5-min Rain = 0
KFR1 030755Z 20005KT 24/17 A3004 RMK A01 T02350170  RH  067%=      5-min Rain = 0
KFR1 030756Z 19005KT 24/17 A3004 RMK A01 T02350170  RH  067%=      5-min Rain = 0
KFR1 030757Z 19005KT 24/17 A3004 RMK A01 T02350170  RH  067%=      5-min Rain = 0
KFR1 030758Z 18005KT 23/17 A3004 RMK A01 T02340170  RH  067%=      5-min Rain = 0
KFR1 030759Z 18004KT 23/17 A3004 RMK A01 T02340170  RH  067%=      5-min Rain = 0
KFR1 030800Z 19004KT 23/17 A3004 RMK A01 T02340170  RH  067%=      5-min Rain = 0
KFR1 030801Z 20004KT 23/17 A3004 RMK A01 T02330170  RH  068%=      5-min Rain = 0
KFR1 030802Z 20004KT 23/17 A3004 RMK A01 T02330170  RH  068%=      5-min Rain = 0
KFR1 030803Z 20004KT 23/17 A3004 RMK A01 T02330170  RH  068%=      5-min Rain = 0
KFR1 030804Z 20004KT 23/17 A3004 RMK A01 T02330170  RH  067%=      5-min Rain = 0
KFR1 030805Z 20004KT 23/17 A3004 RMK A01 T02340170  RH  067%=      5-min Rain = 0
KFR1 030806Z 19004KT 23/17 A3004 RMK A01 T02340170  RH  067%=      5-min Rain = 0
KFR1 030807Z 18003KT 23/17 A3004 RMK A01 T02340170  RH  067%=      5-min Rain = 0
KFR1 030808Z 17004KT 23/17 A3004 RMK A01 T02340170  RH  067%=      5-min Rain = 0
KFR1 030809Z 18004KT 23/17 A3004 RMK A01 T02330170  RH  068%=      5-min Rain = 0
KFR1 030810Z 18004KT 23/17 A3004 RMK A01 T02330170  RH  068%=      5-min Rain = 0
KFR1 030811Z 18005KT 23/17 A3004 RMK A01 T02330171  RH  068%=      5-min Rain = 0
KFR1 030812Z 19005KT 23/17 A3004 RMK A01 T02340171  RH  068%=      5-min Rain = 0
KFR1 030813Z 19005KT 24/17 A3004 RMK A01 T02350171  RH  067%=      5-min Rain = 0
KFR1 030814Z 21003KT 24/17 A3004 RMK A01 T02350171  RH  067%=      5-min Rain = 0
KFR1 030815Z 22003KT 24/17 A3004 RMK A01 T02350171  RH  067%=      5-min Rain = 0
KFR1 030816Z 22003KT 24/17 A3004 RMK A01 T02350171  RH  067%=      5-min Rain = 0
KFR1 030817Z 25002KT 23/17 A3004 RMK A01 T02340171  RH  068%=      5-min Rain = 0
KFR1 030818Z 24002KT 23/17 A3004 RMK A01 T02340171  RH  068%=      5-min Rain = 0
KFR1 030819Z 21002KT 23/17 A3004 RMK A01 T02330171  RH  068%=      5-min Rain = 0
KFR1 030820Z 22001KT 23/17 A3004 RMK A01 T02330171  RH  068%=      5-min Rain = 0
KFR1 030821Z 22001KT 23/17 A3004 RMK A01 T02330171  RH  068%=      5-min Rain = 0
KFR1 030822Z 19001KT 23/17 A3004 RMK A01 T02320171  RH  068%=      5-min Rain = 0
KFR1 030823Z 17001KT 23/17 A3004 RMK A01 T02310171  RH  069%=      5-min Rain = 0
KFR1 030824Z 16001KT 23/17 A3004 RMK A01 T02300170  RH  069%=      5-min Rain = 0
KFR1 030825Z 22001KT 23/17 A3004 RMK A01 T02300170  RH  069%=      5-min Rain = 0
KFR1 030826Z 20002KT 23/17 A3005 RMK A01 T02290171  RH  070%=      5-min Rain = 0
KFR1 030827Z 12001KT 23/17 A3005 RMK A01 T02290171  RH  070%=      5-min Rain = 0
KFR1 030828Z 11001KT 23/17 A3005 RMK A01 T02300171  RH  069%=      5-min Rain = 0
KFR1 030829Z 12001KT 23/17 A3005 RMK A01 T02300170  RH  069%=      5-min Rain = 0
KFR1 030830Z 09001KT 23/17 A3005 RMK A01 T02300171  RH  069%=      5-min Rain = 0
KFR1 030831Z 06002KT 23/17 A3005 RMK A01 T02290172  RH  070%=      5-min Rain = 0
KFR1 030832Z 07002KT 23/17 A3005 RMK A01 T02290172  RH  070%=      5-min Rain = 0
KFR1 030833Z 05001KT 23/17 A3005 RMK A01 T02290172  RH  070%=      5-min Rain = 0
KFR1 030834Z 07002KT 23/17 A3005 RMK A01 T02280173  RH  071%=      5-min Rain = 0
KFR1 030835Z 08003KT 23/17 A3005 RMK A01 T02270173  RH  071%=      5-min Rain = 0
KFR1 030836Z 07002KT 23/17 A3005 RMK A01 T02260173  RH  072%=      5-min Rain = 0
KFR1 030837Z 07001KT 23/17 A3005 RMK A01 T02260174  RH  072%=      5-min Rain = 0
KFR1 030838Z 07001KT 23/17 A3005 RMK A01 T02260174  RH  072%=      5-min Rain = 0
KFR1 030839Z 07001KT 23/17 A3005 RMK A01 T02260174  RH  072%=      5-min Rain = 0
KFR1 030840Z 08001KT 23/17 A3005 RMK A01 T02260174  RH  073%=      5-min Rain = 0
KFR1 030841Z 08002KT 23/17 A3005 RMK A01 T02260174  RH  072%=      5-min Rain = 0
KFR1 030842Z 07002KT 23/17 A3005 RMK A01 T02260174  RH  072%=      5-min Rain = 0
KFR1 030843Z 07002KT 23/17 A3005 RMK A01 T02270174  RH  072%=      5-min Rain = 0
KFR1 030844Z 06002KT 23/17 A3005 RMK A01 T02270174  RH  072%=      5-min Rain = 0
KFR1 030845Z 05002KT 23/17 A3006 RMK A01 T02270174  RH  072%=      5-min Rain = 0
KFR1 030846Z 05002KT 23/17 A3006 RMK A01 T02270174  RH  072%=      5-min Rain = 0
KFR1 030847Z 05003KT 23/17 A3006 RMK A01 T02270173  RH  071%=      5-min Rain = 0
KFR1 030848Z 06003KT 23/17 A3006 RMK A01 T02270172  RH  071%=      5-min Rain = 0
KFR1 030849Z 05002KT 23/17 A3005 RMK A01 T02270173  RH  071%=      5-min Rain = 0
KFR1 030850Z 05002KT 23/17 A3005 RMK A01 T02270173  RH  072%=      5-min Rain = 0
KFR1 030851Z 05002KT 23/17 A3005 RMK A01 T02260173  RH  072%=      5-min Rain = 0
KFR1 030852Z 03001KT 23/17 A3005 RMK A01 T02260172  RH  072%=      5-min Rain = 0
KFR1 030853Z 02002KT 23/17 A3005 RMK A01 T02260172  RH  072%=      5-min Rain = 0
KFR1 030854Z 02002KT 23/17 A3005 RMK A01 T02260173  RH  072%=      5-min Rain = 0
KFR1 030855Z 01002KT 23/17 A3005 RMK A01 T02270174  RH  072%=      5-min Rain = 0
KFR1 030856Z 01002KT 23/17 A3005 RMK A01 T02280174  RH  072%=      5-min Rain = 0
KFR1 030857Z 02002KT 23/17 A3005 RMK A01 T02280174  RH  072%=      5-min Rain = 0
KFR1 030858Z 03003KT 23/17 A3005 RMK A01 T02290174  RH  071%=      5-min Rain = 0
KFR1 030859Z 03003KT 23/17 A3005 RMK A01 T02280174  RH  071%=      5-min Rain = 0
KFR1 030900Z 03002KT 23/17 A3005 RMK A01 T02270174  RH  072%=      5-min Rain = 0
KFR1 030901Z 04002KT 23/18 A3005 RMK A01 T02270175  RH  072%=      5-min Rain = 0
KFR1 030902Z 04002KT 23/18 A3005 RMK A01 T02270176  RH  073%=      5-min Rain = 0
KFR1 030903Z 04002KT 23/18 A3005 RMK A01 T02270175  RH  072%=      5-min Rain = 0
KFR1 030904Z 05002KT 23/18 A3005 RMK A01 T02270175  RH  072%=      5-min Rain = 0
KFR1 030905Z 06003KT 23/18 A3005 RMK A01 T02270176  RH  073%=      5-min Rain = 0
KFR1 030906Z 06003KT 23/18 A3005 RMK A01 T02270176  RH  073%=      5-min Rain = 0
KFR1 030907Z 06004KT 23/18 A3006 RMK A01 T02270176  RH  073%=      5-min Rain = 0
KFR1 030908Z 06004KT 23/18 A3006 RMK A01 T02270176  RH  073%=      5-min Rain = 0
KFR1 030909Z 07004KT 23/18 A3005 RMK A01 T02270176  RH  073%=      5-min Rain = 0
KFR1 030910Z 08003KT 23/18 A3006 RMK A01 T02260175  RH  073%=      5-min Rain = 0
KFR1 030911Z 10003KT 23/17 A3006 RMK A01 T02250174  RH  073%=      5-min Rain = 0
KFR1 030912Z 10003KT 23/17 A3005 RMK A01 T02250174  RH  073%=      5-min Rain = 0
KFR1 030913Z 10004KT 22/17 A3005 RMK A01 T02240173  RH  073%=      5-min Rain = 0
KFR1 030914Z 10004KT 22/17 A3005 RMK A01 T02230173  RH  073%=      5-min Rain = 0
KFR1 030915Z 11004KT 22/17 A3005 RMK A01 T02230173  RH  073%=      5-min Rain = 0
KFR1 030916Z 12004KT 22/17 A3005 RMK A01 T02220173  RH  074%=      5-min Rain = 0
KFR1 030917Z 12004KT 22/17 A3005 RMK A01 T02230174  RH  074%=      5-min Rain = 0
KFR1 030918Z 14003KT 22/17 A3005 RMK A01 T02240174  RH  073%=      5-min Rain = 0
KFR1 030919Z 14003KT 23/17 A3005 RMK A01 T02250174  RH  073%=      5-min Rain = 0
KFR1 030920Z 14004KT 23/17 A3005 RMK A01 T02260174  RH  073%=      5-min Rain = 0
KFR1 030921Z 14004KT 23/17 A3005 RMK A01 T02260174  RH  073%=      5-min Rain = 0
KFR1 030922Z 14004KT 23/17 A3005 RMK A01 T02260174  RH  073%=      5-min Rain = 0
KFR1 030923Z 14004KT 23/18 A3005 RMK A01 T02260175  RH  073%=      5-min Rain = 0
KFR1 030924Z 14004KT 23/17 A3005 RMK A01 T02260174  RH  073%=      5-min Rain = 0
KFR1 030925Z 14004KT 23/18 A3005 RMK A01 T02250175  RH  073%=      5-min Rain = 0
KFR1 030926Z 14003KT 23/18 A3005 RMK A01 T02250175  RH  073%=      5-min Rain = 0
KFR1 030927Z 15004KT 23/18 A3005 RMK A01 T02250175  RH  073%=      5-min Rain = 0
KFR1 030928Z 15004KT 23/18 A3005 RMK A01 T02250175  RH  073%=      5-min Rain = 0
KFR1 030929Z 14004KT 23/18 A3005 RMK A01 T02250175  RH  073%=      5-min Rain = 0
KFR1 030930Z 14004KT 23/18 A3005 RMK A01 T02250175  RH  073%=      5-min Rain = 0
KFR1 030931Z 14005KT 22/18 A3005 RMK A01 T02240175  RH  074%=      5-min Rain = 0
KFR1 030932Z 15005KT 22/18 A3005 RMK A01 T02240175  RH  074%=      5-min Rain = 0
KFR1 030933Z 14004KT 22/18 A3005 RMK A01 T02240176  RH  074%=      5-min Rain = 0
KFR1 030934Z 15004KT 22/18 A3005 RMK A01 T02240176  RH  074%=      5-min Rain = 0
KFR1 030935Z 15004KT 22/18 A3005 RMK A01 T02240175  RH  074%=      5-min Rain = 0
KFR1 030936Z 15004KT 22/18 A3005 RMK A01 T02230175  RH  074%=      5-min Rain = 0
KFR1 030937Z 16004KT 22/18 A3005 RMK A01 T02230175  RH  075%=      5-min Rain = 0
KFR1 030938Z 15005KT 22/18 A3005 RMK A01 T02220175  RH  075%=      5-min Rain = 0
KFR1 030939Z 15005KT 22/18 A3005 RMK A01 T02220176  RH  075%=      5-min Rain = 0
KFR1 030940Z 16005KT 22/18 A3005 RMK A01 T02220176  RH  075%=      5-min Rain = 0
KFR1 030941Z 16005KT 22/18 A3005 RMK A01 T02220176  RH  075%=      5-min Rain = 0
KFR1 030942Z 15005KT 22/18 A3005 RMK A01 T02220176  RH  075%=      5-min Rain = 0
KFR1 030943Z 16005KT 22/18 A3005 RMK A01 T02220176  RH  075%=      5-min Rain = 0
KFR1 030944Z 16005KT 22/18 A3005 RMK A01 T02220176  RH  075%=      5-min Rain = 0
KFR1 030945Z 16005KT 22/18 A3005 RMK A01 T02220177  RH  075%=      5-min Rain = 0
KFR1 030946Z 17005KT 22/18 A3005 RMK A01 T02220177  RH  075%=      5-min Rain = 0
KFR1 030947Z 17005KT 22/18 A3005 RMK A01 T02220177  RH  075%=      5-min Rain = 0
KFR1 030948Z 17005KT 22/18 A3005 RMK A01 T02220177  RH  075%=      5-min Rain = 0
KFR1 030949Z 17005KT 22/18 A3005 RMK A01 T02220177  RH  075%=      5-min Rain = 0
KFR1 030950Z 17004KT 22/18 A3005 RMK A01 T02230177  RH  075%=      5-min Rain = 0
KFR1 030951Z 17004KT 22/18 A3005 RMK A01 T02230177  RH  075%=      5-min Rain = 0
KFR1 030952Z 17004KT 22/18 A3005 RMK A01 T02230177  RH  075%=      5-min Rain = 0
KFR1 030953Z 17004KT 22/18 A3005 RMK A01 T02230177  RH  075%=      5-min Rain = 0
KFR1 030954Z 17004KT 22/18 A3005 RMK A01 T02230177  RH  075%=      5-min Rain = 0
KFR1 030955Z 18004KT 22/18 A3005 RMK A01 T02230177  RH  075%=      5-min Rain = 0
KFR1 030956Z 18003KT 22/18 A3005 RMK A01 T02230177  RH  075%=      5-min Rain = 0
KFR1 030957Z 18004KT 22/18 A3005 RMK A01 T02230177  RH  075%=      5-min Rain = 0
KFR1 030958Z 19004KT 22/18 A3005 RMK A01 T02230177  RH  075%=      5-min Rain = 0
KFR1 030959Z 19004KT 22/18 A3005 RMK A01 T02220176  RH  075%=      5-min Rain = 0
KFR1 031000Z 20004KT 22/18 A3005 RMK A01 T02220176  RH  075%=      5-min Rain = 0
KFR1 031001Z 20004KT 22/18 A3005 RMK A01 T02220176  RH  075%=      5-min Rain = 0
KFR1 031002Z 20005KT 22/18 A3005 RMK A01 T02220176  RH  075%=      5-min Rain = 0
KFR1 031003Z 21005KT 22/18 A3005 RMK A01 T02210176  RH  075%=      5-min Rain = 0
KFR1 031004Z 21004KT 22/18 A3005 RMK A01 T02210176  RH  076%=      5-min Rain = 0
KFR1 031005Z 22004KT 22/18 A3005 RMK A01 T02220176  RH  076%=      5-min Rain = 0
KFR1 031006Z 22004KT 22/18 A3005 RMK A01 T02220176  RH  076%=      5-min Rain = 0
KFR1 031007Z 22004KT 22/18 A3005 RMK A01 T02220177  RH  076%=      5-min Rain = 0
KFR1 031008Z 21003KT 22/18 A3005 RMK A01 T02220177  RH  076%=      5-min Rain = 0
KFR1 031009Z 19002KT 22/18 A3006 RMK A01 T02220177  RH  075%=      5-min Rain = 0
KFR1 031010Z 11003KT 22/18 A3006 RMK A01 T02220175  RH  075%=      5-min Rain = 0
KFR1 031011Z 08005KT 22/17 A3006 RMK A01 T02170172  RH  076%=      5-min Rain = 0
KFR1 031012Z 07007KT 21/17 A3006 RMK A01 T02140174  RH  078%=      5-min Rain = 0
KFR1 031013Z 08009KT 21/18 A3007 RMK A01 T02140176  RH  079%=      5-min Rain = 0
KFR1 031014Z 08009KT 21/18 A3007 RMK A01 T02140176  RH  079%=      5-min Rain = 0
KFR1 031015Z 07011KT 21/17 A3007 RMK A01 T02140174  RH  078%=      5-min Rain = 0
KFR1 031016Z 07010KT 22/17 A3007 RMK A01 T02160174  RH  077%=      5-min Rain = 0
KFR1 031017Z 07012KT 22/18 A3007 RMK A01 T02180175  RH  076%=      5-min Rain = 0
KFR1 031018Z 07010KT 22/18 A3007 RMK A01 T02210175  RH  075%=      5-min Rain = 0
KFR1 031019Z 05009KT 22/18 A3007 RMK A01 T02210175  RH  075%=      5-min Rain = 0
KFR1 031020Z 04006KT 22/18 A3007 RMK A01 T02210175  RH  075%=      5-min Rain = 0
KFR1 031021Z 04003KT 22/18 A3007 RMK A01 T02210175  RH  075%=      5-min Rain = 0
KFR1 031022Z 02002KT 22/17 A3007 RMK A01 T02200174  RH  075%=      5-min Rain = 0
KFR1 031023Z 02000KT 22/17 A3007 RMK A01 T02200174  RH  075%=      5-min Rain = 0
KFR1 031024Z 10000KT 22/17 A3007 RMK A01 T02200174  RH  075%=      5-min Rain = 0
KFR1 031025Z 07001KT 22/18 A3007 RMK A01 T02200175  RH  075%=      5-min Rain = 0
KFR1 031026Z 03003KT 22/18 A3006 RMK A01 T02210175  RH  075%=      5-min Rain = 0
KFR1 031027Z 03004KT 22/18 A3006 RMK A01 T02220175  RH  075%=      5-min Rain = 0
KFR1 031028Z 02005KT 22/18 A3006 RMK A01 T02220176  RH  075%=      5-min Rain = 0
KFR1 031029Z 03005KT 23/18 A3006 RMK A01 T02250177  RH  074%=      5-min Rain = 0
KFR1 031030Z 04003KT 23/18 A3007 RMK A01 T02260177  RH  073%=      5-min Rain = 0
KFR1 031031Z 04003KT 23/18 A3007 RMK A01 T02270176  RH  073%=      5-min Rain = 0
KFR1 031032Z 05004KT 23/18 A3007 RMK A01 T02280177  RH  073%=      5-min Rain = 0
KFR1 031033Z 06005KT 23/18 A3007 RMK A01 T02280177  RH  073%=      5-min Rain = 0
KFR1 031034Z 07006KT 23/18 A3007 RMK A01 T02280176  RH  072%=      5-min Rain = 0
KFR1 031035Z 08007KT 23/18 A3007 RMK A01 T02250175  RH  073%=      5-min Rain = 0
KFR1 031036Z 09006KT 22/18 A3007 RMK A01 T02240176  RH  074%=      5-min Rain = 0
KFR1 031037Z 10007KT 22/18 A3007 RMK A01 T02240177  RH  075%=      5-min Rain = 0
KFR1 031038Z 09008KT 23/18 A3007 RMK A01 T02250177  RH  074%=      5-min Rain = 0
KFR1 031039Z 09008KT 23/18 A3007 RMK A01 T02270177  RH  073%=      5-min Rain = 0
KFR1 031040Z 09007KT 23/18 A3007 RMK A01 T02280175  RH  072%=      5-min Rain = 0
KFR1 031041Z 09009KT 23/17 A3007 RMK A01 T02290174  RH  071%=      5-min Rain = 0
KFR1 031042Z 09009KT 23/17 A3007 RMK A01 T02290173  RH  070%=      5-min Rain = 0
KFR1 031043Z 10009KT 23/17 A3007 RMK A01 T02290172  RH  070%=      5-min Rain = 0
KFR1 031044Z 11010KT 23/17 A3007 RMK A01 T02290172  RH  070%=      5-min Rain = 0
KFR1 031045Z 11010KT 23/17 A3007 RMK A01 T02300172  RH  070%=      5-min Rain = 0
KFR1 031046Z 11009KT 23/17 A3007 RMK A01 T02300172  RH  070%=      5-min Rain = 0
KFR1 031047Z 12009KT 23/17 A3007 RMK A01 T02300173  RH  070%=      5-min Rain = 0
KFR1 031048Z 12009KT 23/17 A3007 RMK A01 T02300172  RH  070%=      5-min Rain = 0
KFR1 031049Z 12008KT 23/17 A3007 RMK A01 T02310173  RH  070%=      5-min Rain = 0
KFR1 031050Z 13007KT 23/17 A3007 RMK A01 T02320173  RH  069%=      5-min Rain = 0
KFR1 031051Z 13006KT 23/17 A3007 RMK A01 T02330173  RH  069%=      5-min Rain = 0
KFR1 031052Z 13006KT 23/17 A3007 RMK A01 T02340173  RH  069%=      5-min Rain = 0
KFR1 031053Z 14007KT 23/17 A3006 RMK A01 T02340174  RH  069%=      5-min Rain = 0
KFR1 031054Z 14006KT 24/17 A3006 RMK A01 T02350174  RH  068%=      5-min Rain = 0
KFR1 031055Z 16006KT 24/17 A3006 RMK A01 T02360174  RH  068%=      5-min Rain = 0
KFR1 031056Z 17006KT 24/17 A3006 RMK A01 T02350174  RH  068%=      5-min Rain = 0
KFR1 031057Z 18007KT 23/17 A3006 RMK A01 T02330174  RH  069%=      5-min Rain = 0
KFR1 031058Z 18006KT 23/17 A3006 RMK A01 T02320174  RH  070%=      5-min Rain = 0
KFR1 031059Z 18005KT 23/17 A3006 RMK A01 T02310174  RH  070%=      5-min Rain = 0
KFR1 031100Z 18005KT 23/17 A3006 RMK A01 T02310174  RH  070%=      5-min Rain = 0
KFR1 031101Z 16005KT 23/17 A3006 RMK A01 T02310174  RH  070%=      5-min Rain = 0
KFR1 031102Z 15003KT 23/17 A3007 RMK A01 T02310174  RH  070%=      5-min Rain = 0
KFR1 031103Z 14004KT 23/17 A3007 RMK A01 T02300174  RH  071%=      5-min Rain = 0
KFR1 031104Z 14007KT 23/17 A3007 RMK A01 T02300174  RH  071%=      5-min Rain = 0
KFR1 031105Z 13006KT 23/18 A3007 RMK A01 T02310175  RH  070%=      5-min Rain = 0
KFR1 031106Z 13007KT 23/18 A3007 RMK A01 T02330175  RH  070%=      5-min Rain = 0
KFR1 031107Z 13009KT 23/18 A3007 RMK A01 T02340175  RH  070%=      5-min Rain = 0
KFR1 031108Z 13008KT 23/18 A3007 RMK A01 T02330175  RH  070%=      5-min Rain = 0
KFR1 031109Z 13007KT 23/18 A3007 RMK A01 T02330175  RH  070%=      5-min Rain = 0
KFR1 031110Z 13006KT 23/18 A3007 RMK A01 T02340175  RH  070%=      5-min Rain = 0
KFR1 031111Z 13006KT 23/18 A3007 RMK A01 T02330175  RH  070%=      5-min Rain = 0
KFR1 031112Z 14004KT 23/18 A3007 RMK A01 T02320175  RH  070%=      5-min Rain = 0
KFR1 031113Z 14005KT 23/17 A3007 RMK A01 T02310174  RH  070%=      5-min Rain = 0
KFR1 031114Z 14006KT 23/18 A3007 RMK A01 T02310175  RH  071%=      5-min Rain = 0
KFR1 031115Z 14007KT 23/17 A3007 RMK A01 T02290174  RH  071%=      5-min Rain = 0
KFR1 031116Z 13009KT 23/18 A3007 RMK A01 T02280175  RH  072%=      5-min Rain = 0
KFR1 031117Z 13009KT 23/18 A3007 RMK A01 T02280175  RH  072%=      5-min Rain = 0
KFR1 031118Z 12008KT 23/18 A3007 RMK A01 T02280175  RH  072%=      5-min Rain = 0
KFR1 031119Z 12008KT 23/18 A3007 RMK A01 T02280175  RH  072%=      5-min Rain = 0
KFR1 031120Z 12009KT 23/18 A3007 RMK A01 T02270175  RH  072%=      5-min Rain = 0
KFR1 031121Z 12009KT 23/18 A3007 RMK A01 T02270175  RH  073%=      5-min Rain = 0
KFR1 031122Z 12009KT 23/18 A3008 RMK A01 T02270175  RH  073%=      5-min Rain = 0
KFR1 031123Z 12010KT 23/18 A3008 RMK A01 T02260175  RH  073%=      5-min Rain = 0
KFR1 031124Z 11009KT 23/18 A3008 RMK A01 T02270175  RH  073%=      5-min Rain = 0
KFR1 031125Z 11010KT 23/18 A3008 RMK A01 T02270175  RH  073%=      5-min Rain = 0
KFR1 031126Z 11009KT 23/18 A3008 RMK A01 T02260175  RH  073%=      5-min Rain = 0
KFR1 031127Z 11010KT 23/18 A3008 RMK A01 T02250175  RH  074%=      5-min Rain = 0
KFR1 031128Z 11011KT 22/18 A3008 RMK A01 T02240175  RH  074%=      5-min Rain = 0
KFR1 031129Z 11009KT 23/18 A3008 RMK A01 T02250175  RH  074%=      5-min Rain = 0
KFR1 031130Z 11009KT 23/18 A3008 RMK A01 T02250175  RH  073%=      5-min Rain = 0
KFR1 031131Z 11009KT 23/18 A3008 RMK A01 T02250176  RH  074%=      5-min Rain = 0
KFR1 031132Z 11010KT 22/18 A3008 RMK A01 T02240175  RH  074%=      5-min Rain = 0
KFR1 031133Z 11008KT 22/18 A3008 RMK A01 T02240176  RH  074%=      5-min Rain = 0
KFR1 031134Z 12009KT 22/18 A3008 RMK A01 T02240176  RH  074%=      5-min Rain = 0
KFR1 031135Z 12009KT 22/18 A3008 RMK A01 T02240176  RH  074%=      5-min Rain = 0
KFR1 031136Z 12009KT 22/18 A3008 RMK A01 T02240175  RH  074%=      5-min Rain = 0
KFR1 031137Z 13008KT 22/18 A3008 RMK A01 T02240175  RH  074%=      5-min Rain = 0
KFR1 031138Z 13009KT 23/18 A3008 RMK A01 T02250175  RH  074%=      5-min Rain = 0
KFR1 031139Z 13009KT 23/18 A3008 RMK A01 T02250175  RH  073%=      5-min Rain = 0
KFR1 031140Z 13010KT 23/18 A3008 RMK A01 T02260176  RH  073%=      5-min Rain = 0
KFR1 031141Z 13010KT 23/18 A3008 RMK A01 T02260176  RH  073%=      5-min Rain = 0
KFR1 031142Z 12010KT 23/18 A3008 RMK A01 T02260176  RH  073%=      5-min Rain = 0
KFR1 031143Z 12009KT 23/18 A3008 RMK A01 T02250176  RH  073%=      5-min Rain = 0
KFR1 031144Z 12008KT 22/18 A3008 RMK A01 T02240176  RH  074%=      5-min Rain = 0
KFR1 031145Z 12009KT 22/18 A3008 RMK A01 T02240176  RH  074%=      5-min Rain = 0
KFR1 031146Z 11009KT 22/18 A3008 RMK A01 T02230176  RH  075%=      5-min Rain = 0
KFR1 031147Z 12009KT 22/18 A3008 RMK A01 T02230176  RH  075%=      5-min Rain = 0
KFR1 031148Z 12009KT 22/18 A3008 RMK A01 T02220176  RH  075%=      5-min Rain = 0
KFR1 031149Z 12009KT 22/18 A3008 RMK A01 T02220175  RH  075%=      5-min Rain = 0
KFR1 031150Z 12009KT 22/18 A3008 RMK A01 T02230176  RH  074%=      5-min Rain = 0
KFR1 031151Z 12010KT 22/18 A3009 RMK A01 T02230175  RH  074%=      5-min Rain = 0
KFR1 031152Z 12009KT 22/18 A3009 RMK A01 T02230176  RH  074%=      5-min Rain = 0
KFR1 031153Z 12009KT 22/18 A3009 RMK A01 T02230175  RH  074%=      5-min Rain = 0
KFR1 031154Z 12008KT 22/18 A3009 RMK A01 T02230175  RH  074%=      5-min Rain = 0
KFR1 031155Z 12009KT 22/18 A3009 RMK A01 T02230175  RH  074%=      5-min Rain = 0
KFR1 031156Z 12009KT 22/18 A3009 RMK A01 T02230176  RH  074%=      5-min Rain = 0
KFR1 031157Z 12008KT 22/18 A3009 RMK A01 T02230176  RH  075%=      5-min Rain = 0
KFR1 031158Z 12007KT 22/18 A3009 RMK A01 T02220176  RH  075%=      5-min Rain = 0
KFR1 031159Z 11008KT 22/18 A3009 RMK A01 T02210175  RH  075%=      5-min Rain = 0
KFR1 031200Z 12009KT 22/18 A3009 RMK A01 T02210176  RH  075%=      5-min Rain = 0
KFR1 031201Z 11009KT 22/18 A3009 RMK A01 T02210176  RH  075%=      5-min Rain = 0
KFR1 031202Z 11010KT 22/18 A3009 RMK A01 T02210176  RH  075%=      5-min Rain = 0
KFR1 031203Z 11010KT 22/18 A3009 RMK A01 T02210176  RH  075%=      5-min Rain = 0
KFR1 031204Z 11011KT 22/18 A301 RMK A01 T02210176  RH  076%=      5-min Rain = 0
KFR1 031205Z 11011KT 22/18 A301 RMK A01 T02210176  RH  075%=      5-min Rain = 0
KFR1 031206Z 11010KT 22/18 A301 RMK A01 T02210176  RH  075%=      5-min Rain = 0
KFR1 031207Z 11009KT 22/18 A301 RMK A01 T02210176  RH  075%=      5-min Rain = 0
KFR1 031208Z 11009KT 22/18 A301 RMK A01 T02210176  RH  075%=      5-min Rain = 0
KFR1 031209Z 11008KT 22/18 A301 RMK A01 T02210176  RH  075%=      5-min Rain = 0
KFR1 031210Z 11009KT 22/18 A301 RMK A01 T02220176  RH  075%=      5-min Rain = 0
KFR1 031211Z 12009KT 22/18 A301 RMK A01 T02220177  RH  075%=      5-min Rain = 0
KFR1 031212Z 12010KT 22/18 A301 RMK A01 T02220176  RH  075%=      5-min Rain = 0
KFR1 031213Z 12009KT 22/18 A301 RMK A01 T02230177  RH  075%=      5-min Rain = 0
KFR1 031214Z 11008KT 22/18 A301 RMK A01 T02230177  RH  075%=      5-min Rain = 0
KFR1 031215Z 12009KT 22/18 A301 RMK A01 T02230177  RH  075%=      5-min Rain = 0
KFR1 031216Z 12007KT 22/18 A301 RMK A01 T02240177  RH  075%=      5-min Rain = 0
KFR1 031217Z 12009KT 22/18 A301 RMK A01 T02240177  RH  075%=      5-min Rain = 0
KFR1 031218Z 12008KT 23/18 A301 RMK A01 T02250178  RH  075%=      5-min Rain = 0
KFR1 031219Z 12007KT 22/18 A301 RMK A01 T02240177  RH  075%=      5-min Rain = 0
KFR1 031220Z 12008KT 22/18 A301 RMK A01 T02240177  RH  075%=      5-min Rain = 0
KFR1 031221Z 12007KT 23/18 A301 RMK A01 T02250177  RH  074%=      5-min Rain = 0
KFR1 031222Z 12008KT 23/18 A301 RMK A01 T02250178  RH  074%=      5-min Rain = 0
KFR1 031223Z 12007KT 23/18 A301 RMK A01 T02250178  RH  075%=      5-min Rain = 0
KFR1 031224Z 12007KT 23/18 A301 RMK A01 T02250177  RH  074%=      5-min Rain = 0
KFR1 031225Z 12007KT 23/18 A301 RMK A01 T02250178  RH  074%=      5-min Rain = 0
KFR1 031226Z 12007KT 23/18 A301 RMK A01 T02260178  RH  074%=      5-min Rain = 0
KFR1 031227Z 13008KT 23/18 A301 RMK A01 T02260178  RH  074%=      5-min Rain = 0
KFR1 031228Z 12007KT 23/18 A301 RMK A01 T02260178  RH  074%=      5-min Rain = 0
KFR1 031229Z 13008KT 23/18 A301 RMK A01 T02270178  RH  074%=      5-min Rain = 0
KFR1 031230Z 12008KT 23/18 A301 RMK A01 T02270178  RH  074%=      5-min Rain = 0
KFR1 031231Z 12008KT 23/18 A301 RMK A01 T02270178  RH  074%=      5-min Rain = 0
KFR1 031232Z 13007KT 23/18 A301 RMK A01 T02270178  RH  074%=      5-min Rain = 0
KFR1 031233Z 12007KT 23/18 A301 RMK A01 T02270178  RH  074%=      5-min Rain = 0
KFR1 031234Z 12008KT 23/18 A301 RMK A01 T02270178  RH  074%=      5-min Rain = 0
KFR1 031235Z 12007KT 23/18 A301 RMK A01 T02280178  RH  074%=      5-min Rain = 0
KFR1 031236Z 12008KT 23/18 A301 RMK A01 T02280178  RH  074%=      5-min Rain = 0
KFR1 031237Z 12009KT 23/18 A301 RMK A01 T02280178  RH  073%=      5-min Rain = 0
KFR1 031238Z 12009KT 23/18 A301 RMK A01 T02280178  RH  073%=      5-min Rain = 0
KFR1 031239Z 12007KT 23/18 A301 RMK A01 T02280178  RH  073%=      5-min Rain = 0
KFR1 031240Z 11007KT 23/18 A301 RMK A01 T02290179  RH  073%=      5-min Rain = 0
KFR1 031241Z 12008KT 23/18 A301 RMK A01 T02290179  RH  073%=      5-min Rain = 0
KFR1 031242Z 11007KT 23/18 A301 RMK A01 T02290179  RH  073%=      5-min Rain = 0
KFR1 031243Z 12008KT 23/18 A301 RMK A01 T02290179  RH  073%=      5-min Rain = 0
KFR1 031244Z 12008KT 23/18 A301 RMK A01 T02300179  RH  073%=      5-min Rain = 0
KFR1 031245Z 11008KT 23/18 A301 RMK A01 T02300179  RH  073%=      5-min Rain = 0
KFR1 031246Z 12009KT 23/18 A301 RMK A01 T02300179  RH  073%=      5-min Rain = 0
KFR1 031247Z 11009KT 23/18 A301 RMK A01 T02300179  RH  073%=      5-min Rain = 0
KFR1 031248Z 11009KT 23/18 A301 RMK A01 T02300179  RH  073%=      5-min Rain = 0
KFR1 031249Z 12009KT 23/18 A301 RMK A01 T02300179  RH  073%=      5-min Rain = 0
KFR1 031250Z 11007KT 23/18 A301 RMK A01 T02300179  RH  073%=      5-min Rain = 0
KFR1 031251Z 11009KT 23/18 A301 RMK A01 T02310180  RH  073%=      5-min Rain = 0
KFR1 031252Z 12007KT 23/18 A301 RMK A01 T02310180  RH  073%=      5-min Rain = 0
KFR1 031253Z 12008KT 23/18 A301 RMK A01 T02310179  RH  073%=      5-min Rain = 0
KFR1 031254Z 12006KT 23/18 A301 RMK A01 T02310179  RH  073%=      5-min Rain = 0
KFR1 031255Z 12007KT 23/18 A301 RMK A01 T02320180  RH  073%=      5-min Rain = 0
KFR1 031256Z 12007KT 23/18 A301 RMK A01 T02320180  RH  072%=      5-min Rain = 0
KFR1 031257Z 12008KT 23/18 A301 RMK A01 T02320180  RH  073%=      5-min Rain = 0
KFR1 031258Z 12007KT 23/18 A301 RMK A01 T02330180  RH  072%=      5-min Rain = 0
KFR1 031259Z 13004KT 23/18 A301 RMK A01 T02330180  RH  072%=      5-min Rain = 0
KFR1 031300Z 12005KT 23/18 A301 RMK A01 T02330181  RH  072%=      5-min Rain = 0
KFR1 031301Z 11004KT 23/18 A301 RMK A01 T02340182  RH  072%=      5-min Rain = 0
KFR1 031302Z 12003KT 24/18 A301 RMK A01 T02350183  RH  072%=      5-min Rain = 0
KFR1 031303Z 12004KT 24/18 A301 RMK A01 T02370183  RH  072%=      5-min Rain = 0
KFR1 031304Z 13003KT 24/18 A301 RMK A01 T02380183  RH  071%=      5-min Rain = 0
KFR1 031305Z 14002KT 24/18 A301 RMK A01 T02380183  RH  071%=      5-min Rain = 0
KFR1 031306Z 12001KT 24/18 A301 RMK A01 T02390184  RH  071%=      5-min Rain = 0
KFR1 031307Z 12003KT 24/19 A301 RMK A01 T02410186  RH  071%=      5-min Rain = 0
KFR1 031308Z 11003KT 24/18 A301 RMK A01 T02420183  RH  070%=      5-min Rain = 0
KFR1 031309Z 11002KT 24/19 A301 RMK A01 T02420185  RH  071%=      5-min Rain = 0
KFR1 031310Z 11002KT 24/18 A301 RMK A01 T02420184  RH  070%=      5-min Rain = 0
KFR1 031311Z 07002KT 24/18 A301 RMK A01 T02430184  RH  070%=      5-min Rain = 0
KFR1 031312Z 08002KT 24/18 A301 RMK A01 T02430184  RH  069%=      5-min Rain = 0
KFR1 031313Z 07003KT 24/19 A3011 RMK A01 T02440185  RH  070%=      5-min Rain = 0
KFR1 031314Z 05002KT 24/19 A3011 RMK A01 T02440185  RH  070%=      5-min Rain = 0
KFR1 031315Z 03003KT 24/18 A3011 RMK A01 T02440184  RH  069%=      5-min Rain = 0
KFR1 031316Z 02003KT 24/18 A3011 RMK A01 T02430182  RH  069%=      5-min Rain = 0
KFR1 031317Z 01004KT 24/18 A3011 RMK A01 T02410181  RH  069%=      5-min Rain = 0
KFR1 031318Z 01003KT 24/18 A3011 RMK A01 T02390181  RH  070%=      5-min Rain = 0
KFR1 031319Z 02003KT 24/18 A3011 RMK A01 T02380182  RH  071%=      5-min Rain = 0
KFR1 031320Z 01003KT 24/18 A3011 RMK A01 T02380181  RH  070%=      5-min Rain = 0
KFR1 031321Z 03004KT 24/18 A3011 RMK A01 T02380180  RH  070%=      5-min Rain = 0
KFR1 031322Z 03004KT 24/18 A3011 RMK A01 T02390182  RH  071%=      5-min Rain = 0
KFR1 031323Z 02003KT 24/18 A3011 RMK A01 T02380182  RH  071%=      5-min Rain = 0
KFR1 031324Z 01003KT 24/18 A3011 RMK A01 T02390183  RH  071%=      5-min Rain = 0
KFR1 031325Z 02003KT 24/18 A3011 RMK A01 T02400182  RH  070%=      5-min Rain = 0
KFR1 031326Z 02003KT 24/18 A3011 RMK A01 T02400183  RH  070%=      5-min Rain = 0
KFR1 031327Z 02003KT 24/19 A3011 RMK A01 T02400185  RH  071%=      5-min Rain = 0
KFR1 031328Z 02001KT 24/19 A3011 RMK A01 T02420185  RH  070%=      5-min Rain = 0
KFR1 031329Z 03000KT 24/19 A3011 RMK A01 T02440186  RH  070%=      5-min Rain = 0
KFR1 031330Z 03000KT 25/18 A3011 RMK A01 T02450184  RH  069%=      5-min Rain = 0
KFR1 031331Z 34000KT 25/19 A3011 RMK A01 T02480186  RH  069%=      5-min Rain = 0
KFR1 031332Z 02002KT 25/19 A3011 RMK A01 T02500187  RH  068%=      5-min Rain = 0
KFR1 031333Z 02002KT 25/19 A3011 RMK A01 T02490187  RH  068%=      5-min Rain = 0
KFR1 031334Z 03002KT 25/19 A3011 RMK A01 T02490187  RH  068%=      5-min Rain = 0
KFR1 031335Z 02001KT 25/19 A3011 RMK A01 T02480186  RH  068%=      5-min Rain = 0
KFR1 031336Z 06002KT 25/19 A3011 RMK A01 T02470187  RH  069%=      5-min Rain = 0
KFR1 031337Z 04002KT 25/19 A3011 RMK A01 T02480189  RH  070%=      5-min Rain = 0
KFR1 031338Z 08002KT 25/19 A3011 RMK A01 T02500189  RH  069%=      5-min Rain = 0
KFR1 031339Z 09003KT 25/19 A3011 RMK A01 T02510190  RH  069%=      5-min Rain = 0
KFR1 031340Z 09003KT 25/19 A3011 RMK A01 T02530189  RH  068%=      5-min Rain = 0
KFR1 031341Z 07002KT 25/19 A3011 RMK A01 T02540190  RH  068%=      5-min Rain = 0
KFR1 031342Z 10002KT 26/19 A3011 RMK A01 T02550190  RH  067%=      5-min Rain = 0
KFR1 031343Z 11002KT 26/19 A3011 RMK A01 T02560189  RH  066%=      5-min Rain = 0
KFR1 031344Z 05001KT 26/19 A3011 RMK A01 T02570190  RH  067%=      5-min Rain = 0
KFR1 031345Z 08002KT 26/19 A3011 RMK A01 T02570189  RH  066%=      5-min Rain = 0
KFR1 031346Z 10003KT 26/19 A3011 RMK A01 T02570190  RH  067%=      5-min Rain = 0
KFR1 031347Z 10003KT 26/19 A3011 RMK A01 T02560188  RH  066%=      5-min Rain = 0
KFR1 031348Z 09002KT 26/19 A3011 RMK A01 T02560190  RH  067%=      5-min Rain = 0
KFR1 031349Z 09003KT 26/19 A3011 RMK A01 T02570190  RH  067%=      5-min Rain = 0
KFR1 031350Z 11003KT 26/19 A3011 RMK A01 T02570189  RH  066%=      5-min Rain = 0
KFR1 031351Z 11003KT 26/19 A3011 RMK A01 T02560188  RH  066%=      5-min Rain = 0
KFR1 031352Z 09004KT 26/19 A3011 RMK A01 T02560189  RH  066%=      5-min Rain = 0
KFR1 031353Z 08003KT 26/19 A3011 RMK A01 T02560189  RH  066%=      5-min Rain = 0
KFR1 031354Z 08003KT 26/19 A3011 RMK A01 T02580192  RH  067%=      5-min Rain = 0
KFR1 031355Z 06003KT 26/19 A3011 RMK A01 T02590192  RH  066%=      5-min Rain = 0
KFR1 031356Z 08004KT 26/19 A3011 RMK A01 T02600191  RH  066%=      5-min Rain = 0
KFR1 031357Z 05004KT 26/19 A3011 RMK A01 T02610190  RH  065%=      5-min Rain = 0
KFR1 031358Z 03003KT 26/19 A3011 RMK A01 T02580189  RH  065%=      5-min Rain = 0
KFR1 031359Z 02003KT 26/19 A3011 RMK A01 T02550186  RH  066%=      5-min Rain = 0
KFR1 031400Z 02003KT 25/19 A3011 RMK A01 T02520185  RH  066%=      5-min Rain = 0
KFR1 031401Z 01003KT 25/19 A3011 RMK A01 T02510186  RH  067%=      5-min Rain = 0
KFR1 031402Z 01004KT 25/19 A3011 RMK A01 T02510188  RH  068%=      5-min Rain = 0
KFR1 031403Z 01003KT 25/19 A3011 RMK A01 T02510187  RH  068%=      5-min Rain = 0
KFR1 031404Z 02002KT 25/19 A3011 RMK A01 T02510187  RH  068%=      5-min Rain = 0
KFR1 031405Z 02002KT 25/19 A3012 RMK A01 T02510186  RH  067%=      5-min Rain = 0
KFR1 031406Z 35002KT 25/19 A3012 RMK A01 T02520188  RH  068%=      5-min Rain = 0
KFR1 031407Z 36002KT 25/19 A3012 RMK A01 T02530188  RH  067%=      5-min Rain = 0
KFR1 031408Z 35002KT 25/19 A3012 RMK A01 T02540188  RH  067%=      5-min Rain = 0
KFR1 031409Z 35002KT 25/19 A3012 RMK A01 T02540188  RH  067%=      5-min Rain = 0
KFR1 031410Z 00003KT 25/19 A3012 RMK A01 T02540187  RH  066%=      5-min Rain = 0
KFR1 031411Z 00003KT 25/18 A3011 RMK A01 T02510183  RH  066%=      5-min Rain = 0
KFR1 031412Z 02004KT 25/19 A3011 RMK A01 T02490186  RH  068%=      5-min Rain = 0
KFR1 031413Z 04002KT 25/19 A3012 RMK A01 T02500188  RH  068%=      5-min Rain = 0
KFR1 031414Z 02002KT 25/19 A3012 RMK A01 T02530189  RH  067%=      5-min Rain = 0
KFR1 031415Z 05003KT 26/19 A3012 RMK A01 T02550187  RH  066%=      5-min Rain = 0
KFR1 031416Z 03003KT 26/19 A3012 RMK A01 T02560187  RH  066%=      5-min Rain = 0
KFR1 031417Z 03002KT 26/19 A3012 RMK A01 T02560189  RH  066%=      5-min Rain = 0
KFR1 031418Z 07002KT 26/19 A3012 RMK A01 T02570189  RH  066%=      5-min Rain = 0
KFR1 031419Z 03002KT 26/19 A3012 RMK A01 T02590189  RH  065%=      5-min Rain = 0
KFR1 031420Z 33002KT 26/19 A3012 RMK A01 T02610190  RH  065%=      5-min Rain = 0
KFR1 031421Z 30002KT 26/19 A3012 RMK A01 T02630189  RH  064%=      5-min Rain = 0
KFR1 031422Z 25001KT 26/19 A3012 RMK A01 T02620190  RH  064%=      5-min Rain = 0
KFR1 031423Z 25002KT 26/19 A3012 RMK A01 T02630189  RH  064%=      5-min Rain = 0
KFR1 031424Z 27002KT 26/19 A3012 RMK A01 T02630187  RH  063%=      5-min Rain = 0
KFR1 031425Z 16002KT 26/19 A3012 RMK A01 T02640187  RH  062%=      5-min Rain = 0
KFR1 031426Z 17002KT 27/19 A3012 RMK A01 T02660185  RH  061%=      5-min Rain = 0
KFR1 031427Z 11001KT 27/19 A3011 RMK A01 T02670186  RH  061%=      5-min Rain = 0
KFR1 031428Z 13002KT 27/19 A3011 RMK A01 T02690190  RH  062%=      5-min Rain = 0
KFR1 031429Z 12002KT 27/19 A3012 RMK A01 T02710191  RH  062%=      5-min Rain = 0
KFR1 031430Z 26002KT 27/19 A3012 RMK A01 T02730191  RH  061%=      5-min Rain = 0
KFR1 031431Z 27002KT 27/19 A3012 RMK A01 T02720191  RH  061%=      5-min Rain = 0
KFR1 031432Z 30002KT 27/19 A3012 RMK A01 T02710192  RH  062%=      5-min Rain = 0
KFR1 031433Z 33003KT 27/19 A3012 RMK A01 T02710189  RH  061%=      5-min Rain = 0
KFR1 031434Z 32001KT 27/19 A3012 RMK A01 T02680187  RH  061%=      5-min Rain = 0
KFR1 031435Z 32002KT 26/19 A3012 RMK A01 T02640185  RH  062%=      5-min Rain = 0
KFR1 031436Z 24001KT 26/19 A3012 RMK A01 T02620187  RH  063%=      5-min Rain = 0
KFR1 031437Z 36001KT 26/19 A3012 RMK A01 T02630186  RH  063%=      5-min Rain = 0
KFR1 031438Z 04003KT 26/19 A3012 RMK A01 T02630188  RH  063%=      5-min Rain = 0
KFR1 031439Z 35002KT 26/19 A3012 RMK A01 T02630186  RH  062%=      5-min Rain = 0
KFR1 031440Z 31001KT 26/19 A3012 RMK A01 T02620186  RH  063%=      5-min Rain = 0
KFR1 031441Z 29001KT 26/19 A3012 RMK A01 T02620189  RH  064%=      5-min Rain = 0
KFR1 031442Z 29001KT 27/19 A3012 RMK A01 T02650189  RH  063%=      5-min Rain = 0
KFR1 031443Z 21002KT 27/19 A3012 RMK A01 T02680188  RH  062%=      5-min Rain = 0
KFR1 031444Z 17003KT 27/19 A3012 RMK A01 T02710186  RH  060%=      5-min Rain = 0
KFR1 031445Z 20004KT 27/19 A3012 RMK A01 T02740188  RH  059%=      5-min Rain = 0
KFR1 031446Z 21006KT 28/19 A3012 RMK A01 T02770186  RH  058%=      5-min Rain = 0
KFR1 031447Z 17004KT 28/19 A3011 RMK A01 T02770185  RH  057%=      5-min Rain = 0
KFR1 031448Z 18004KT 28/18 A3011 RMK A01 T02770182  RH  056%=      5-min Rain = 0
KFR1 031449Z 18004KT 28/19 A3011 RMK A01 T02790185  RH  057%=      5-min Rain = 0
KFR1 031450Z 20007KT 28/19 A3011 RMK A01 T02810185  RH  056%=      5-min Rain = 0
KFR1 031451Z 20006KT 28/19 A3011 RMK A01 T02820185  RH  055%=      5-min Rain = 0
KFR1 031452Z 20006KT 28/19 A3012 RMK A01 T02800186  RH  057%=      5-min Rain = 0
KFR1 031453Z 18005KT 28/19 A3012 RMK A01 T02780185  RH  057%=      5-min Rain = 0
KFR1 031454Z 22005KT 28/19 A3012 RMK A01 T02780186  RH  057%=      5-min Rain = 0
KFR1 031455Z 21005KT 28/18 A3012 RMK A01 T02790184  RH  056%=      5-min Rain = 0
KFR1 031456Z 21005KT 28/18 A3012 RMK A01 T02800182  RH  055%=      5-min Rain = 0
KFR1 031457Z 21006KT 28/18 A3012 RMK A01 T02810184  RH  055%=      5-min Rain = 0
KFR1 031458Z 20006KT 28/18 A3012 RMK A01 T02820181  RH  054%=      5-min Rain = 0
KFR1 031459Z 19004KT 28/18 A3012 RMK A01 T02820182  RH  054%=      5-min Rain = 0
KFR1 031500Z 17005KT 28/18 A3012 RMK A01 T02820180  RH  054%=      5-min Rain = 0
KFR1 031501Z 18008KT 28/18 A3012 RMK A01 T02830182  RH  054%=      5-min Rain = 0
KFR1 031502Z 19008KT 28/18 A3012 RMK A01 T02840181  RH  054%=      5-min Rain = 0
KFR1 031503Z 18006KT 28/18 A3012 RMK A01 T02830181  RH  054%=      5-min Rain = 0
KFR1 031504Z 17006KT 28/18 A3012 RMK A01 T02830181  RH  054%=      5-min Rain = 0
KFR1 031505Z 19005KT 28/18 A3012 RMK A01 T02830181  RH  054%=      5-min Rain = 0
KFR1 031506Z 18007KT 28/18 A3011 RMK A01 T02830180  RH  054%=      5-min Rain = 0
KFR1 031507Z 18007KT 28/18 A3012 RMK A01 T02840179  RH  053%=      5-min Rain = 0
KFR1 031508Z 18004KT 28/18 A3012 RMK A01 T02840179  RH  053%=      5-min Rain = 0
KFR1 031509Z 16005KT 29/18 A3012 RMK A01 T02850178  RH  052%=      5-min Rain = 0
KFR1 031510Z 17006KT 29/18 A3012 RMK A01 T02860179  RH  052%=      5-min Rain = 0
KFR1 031511Z 18005KT 29/18 A3012 RMK A01 T02870180  RH  052%=      5-min Rain = 0
KFR1 031512Z 19005KT 29/18 A3012 RMK A01 T02880179  RH  052%=      5-min Rain = 0
KFR1 031513Z 17004KT 29/18 A3012 RMK A01 T02860175  RH  051%=      5-min Rain = 0
KFR1 031514Z 15005KT 29/18 A3012 RMK A01 T02860181  RH  053%=      5-min Rain = 0
KFR1 031515Z 14004KT 29/18 A3012 RMK A01 T02880181  RH  052%=      5-min Rain = 0
KFR1 031516Z 12005KT 29/18 A3011 RMK A01 T02890178  RH  051%=      5-min Rain = 0
KFR1 031517Z 11003KT 29/18 A3011 RMK A01 T02880179  RH  052%=      5-min Rain = 0
KFR1 031518Z 12004KT 29/18 A3011 RMK A01 T02890181  RH  052%=      5-min Rain = 0
KFR1 031519Z 12004KT 29/18 A3011 RMK A01 T02910176  RH  050%=      5-min Rain = 0
KFR1 031520Z 18003KT 29/18 A3011 RMK A01 T02910179  RH  051%=      5-min Rain = 0
KFR1 031521Z 19006KT 29/18 A3011 RMK A01 T02910176  RH  050%=      5-min Rain = 0
KFR1 031522Z 19003KT 29/18 A3011 RMK A01 T02900176  RH  050%=      5-min Rain = 0
KFR1 031523Z 18002KT 29/18 A3011 RMK A01 T02890177  RH  051%=      5-min Rain = 0
KFR1 031524Z 21004KT 29/18 A3011 RMK A01 T02900176  RH  050%=      5-min Rain = 0
KFR1 031525Z 22004KT 29/18 A3011 RMK A01 T02910177  RH  050%=      5-min Rain = 0
KFR1 031526Z 23005KT 29/18 A3011 RMK A01 T02910175  RH  050%=      5-min Rain = 0
KFR1 031527Z 24005KT 29/18 A3011 RMK A01 T02910176  RH  050%=      5-min Rain = 0
KFR1 031528Z 23004KT 29/18 A3011 RMK A01 T02900176  RH  050%=      5-min Rain = 0
KFR1 031529Z 23002KT 29/18 A3011 RMK A01 T02910178  RH  050%=      5-min Rain = 0
KFR1 031530Z 17004KT 29/18 A3011 RMK A01 T02920175  RH  049%=      5-min Rain = 0
KFR1 031531Z 17005KT 29/18 A3011 RMK A01 T02930177  RH  050%=      5-min Rain = 0
KFR1 031532Z 17005KT 29/18 A3011 RMK A01 T02940178  RH  050%=      5-min Rain = 0
KFR1 031533Z 18002KT 29/18 A3011 RMK A01 T02940176  RH  049%=      5-min Rain = 0
KFR1 031534Z 20001KT 29/18 A3011 RMK A01 T02930177  RH  050%=      5-min Rain = 0
KFR1 031535Z 13002KT 29/18 A3011 RMK A01 T02930178  RH  050%=      5-min Rain = 0
KFR1 031536Z 14004KT 29/18 A3011 RMK A01 T02940177  RH  049%=      5-min Rain = 0
KFR1 031537Z 15004KT 30/18 A3011 RMK A01 T02950177  RH  049%=      5-min Rain = 0
KFR1 031538Z 13004KT 30/18 A3011 RMK A01 T02960179  RH  049%=      5-min Rain = 0
KFR1 031539Z 16003KT 30/18 A3011 RMK A01 T02970176  RH  048%=      5-min Rain = 0
KFR1 031540Z 20002KT 30/18 A3011 RMK A01 T02970183  RH  050%=      5-min Rain = 0
KFR1 031541Z 30002KT 30/19 A3011 RMK A01 T02970190  RH  053%=      5-min Rain = 0
KFR1 031542Z 29003KT 30/19 A3011 RMK A01 T02950186  RH  052%=      5-min Rain = 0
KFR1 031543Z 29002KT 29/18 A3011 RMK A01 T02930183  RH  052%=      5-min Rain = 0
KFR1 031544Z 28001KT 29/18 A3011 RMK A01 T02920184  RH  052%=      5-min Rain = 0
KFR1 031545Z 29002KT 29/18 A3011 RMK A01 T02930178  RH  050%=      5-min Rain = 0
KFR1 031546Z 25000KT 29/18 A3011 RMK A01 T02930182  RH  051%=      5-min Rain = 0
KFR1 031547Z 12000KT 30/18 A3011 RMK A01 T02950182  RH  051%=      5-min Rain = 0
KFR1 031548Z 04000KT 30/18 A3011 RMK A01 T02970182  RH  050%=      5-min Rain = 0
KFR1 031549Z 25000KT 30/18 A3011 RMK A01 T02980182  RH  050%=      5-min Rain = 0
KFR1 031550Z 22001KT 30/18 A3011 RMK A01 T03000183  RH  049%=      5-min Rain = 0
KFR1 031551Z 18003KT 30/18 A3011 RMK A01 T03020182  RH  049%=      5-min Rain = 0
KFR1 031552Z 20002KT 30/18 A3011 RMK A01 T03010183  RH  049%=      5-min Rain = 0
KFR1 031553Z 19003KT 30/19 A3011 RMK A01 T03030185  RH  049%=      5-min Rain = 0
KFR1 031554Z 18005KT 30/18 A3011 RMK A01 T03040177  RH  047%=      5-min Rain = 0
KFR1 031555Z 20005KT 30/18 A3011 RMK A01 T03040182  RH  048%=      5-min Rain = 0
KFR1 031556Z 20004KT 30/18 A3011 RMK A01 T03030180  RH  048%=      5-min Rain = 0
KFR1 031557Z 26002KT 30/19 A3011 RMK A01 T03020185  RH  049%=      5-min Rain = 0
KFR1 031558Z 28003KT 30/18 A3011 RMK A01 T03020183  RH  049%=      5-min Rain = 0
KFR1 031559Z 28004KT 30/18 A3011 RMK A01 T03000184  RH  050%=      5-min Rain = 0
KFR1 031600Z 30002KT 30/18 A3011 RMK A01 T02990184  RH  050%=      5-min Rain = 0
KFR1 031601Z 29002KT 30/18 A3011 RMK A01 T02970182  RH  050%=      5-min Rain = 0
KFR1 031602Z 27002KT 30/18 A3011 RMK A01 T02960179  RH  049%=      5-min Rain = 0
KFR1 031603Z 28002KT 30/18 A3011 RMK A01 T02960179  RH  049%=      5-min Rain = 0
KFR1 031604Z 28001KT 30/18 A3011 RMK A01 T02970184  RH  051%=      5-min Rain = 0
KFR1 031605Z 10002KT 30/18 A3011 RMK A01 T02990184  RH  050%=      5-min Rain = 0
KFR1 031606Z 08003KT 30/18 A3011 RMK A01 T03000182  RH  049%=      5-min Rain = 0
KFR1 031607Z 11002KT 30/18 A3011 RMK A01 T02990184  RH  050%=      5-min Rain = 0
KFR1 031608Z 15003KT 30/18 A3011 RMK A01 T03000182  RH  049%=      5-min Rain = 0
KFR1 031609Z 17003KT 30/17 A3011 RMK A01 T03020173  RH  046%=      5-min Rain = 0
KFR1 031610Z 16002KT 30/17 A3011 RMK A01 T03020174  RH  046%=      5-min Rain = 0
KFR1 031611Z 21001KT 30/18 A3011 RMK A01 T03020175  RH  047%=      5-min Rain = 0
KFR1 031612Z 20001KT 30/18 A3011 RMK A01 T03020175  RH  047%=      5-min Rain = 0
KFR1 031613Z 16002KT 30/18 A3011 RMK A01 T03040179  RH  047%=      5-min Rain = 0
KFR1 031614Z 25001KT 31/18 A3011 RMK A01 T03060175  RH  046%=      5-min Rain = 0
KFR1 031615Z 31001KT 31/18 A3011 RMK A01 T03060182  RH  047%=      5-min Rain = 0
KFR1 031616Z 33003KT 31/18 A3011 RMK A01 T03060184  RH  048%=      5-min Rain = 0
KFR1 031617Z 32005KT 31/19 A3011 RMK A01 T03050185  RH  049%=      5-min Rain = 0
KFR1 031618Z 31004KT 30/19 A3011 RMK A01 T03010185  RH  050%=      5-min Rain = 0
KFR1 031619Z 33003KT 30/19 A3011 RMK A01 T03000187  RH  051%=      5-min Rain = 0
KFR1 031620Z 34003KT 30/19 A3011 RMK A01 T03010188  RH  051%=      5-min Rain = 0
KFR1 031621Z 33004KT 30/18 A3011 RMK A01 T03020184  RH  049%=      5-min Rain = 0
KFR1 031622Z 33004KT 30/18 A3011 RMK A01 T03000184  RH  050%=      5-min Rain = 0
KFR1 031623Z 33003KT 30/19 A3011 RMK A01 T03000186  RH  050%=      5-min Rain = 0
KFR1 031624Z 34003KT 30/19 A3011 RMK A01 T03010188  RH  051%=      5-min Rain = 0
KFR1 031625Z 35004KT 30/19 A3011 RMK A01 T03020185  RH  050%=      5-min Rain = 0
KFR1 031626Z 34003KT 30/18 A3011 RMK A01 T03030182  RH  049%=      5-min Rain = 0
KFR1 031627Z 34004KT 30/18 A3011 RMK A01 T03030179  RH  048%=      5-min Rain = 0
KFR1 031628Z 34004KT 30/18 A3011 RMK A01 T03030184  RH  049%=      5-min Rain = 0
KFR1 031629Z 02003KT 31/19 A3011 RMK A01 T03050185  RH  049%=      5-min Rain = 0
KFR1 031630Z 02005KT 31/18 A3011 RMK A01 T03080184  RH  048%=      5-min Rain = 0
KFR1 031631Z 02006KT 31/18 A3011 RMK A01 T03080184  RH  048%=      5-min Rain = 0
KFR1 031632Z 01006KT 31/18 A3011 RMK A01 T03050180  RH  047%=      5-min Rain = 0
KFR1 031633Z 03004KT 30/18 A3011 RMK A01 T03020179  RH  048%=      5-min Rain = 0
KFR1 031634Z 02005KT 30/19 A3011 RMK A01 T03020185  RH  050%=      5-min Rain = 0
KFR1 031635Z 02005KT 30/18 A3011 RMK A01 T03030182  RH  048%=      5-min Rain = 0
KFR1 031636Z 03005KT 30/18 A3011 RMK A01 T03040183  RH  049%=      5-min Rain = 0
KFR1 031637Z 00005KT 30/18 A3011 RMK A01 T03040181  RH  048%=      5-min Rain = 0
KFR1 031638Z 02005KT 30/18 A3011 RMK A01 T03040180  RH  047%=      5-min Rain = 0
KFR1 031639Z 02005KT 31/18 A3011 RMK A01 T03050183  RH  048%=      5-min Rain = 0
KFR1 031640Z 02005KT 31/18 A3011 RMK A01 T03050182  RH  048%=      5-min Rain = 0
KFR1 031641Z 02005KT 31/18 A3011 RMK A01 T03060182  RH  047%=      5-min Rain = 0
KFR1 031642Z 02005KT 31/18 A3011 RMK A01 T03070182  RH  047%=      5-min Rain = 0
KFR1 031643Z 02003KT 31/18 A3011 RMK A01 T03080177  RH  046%=      5-min Rain = 0
KFR1 031644Z 33001KT 31/18 A3011 RMK A01 T03070176  RH  046%=      5-min Rain = 0
KFR1 031645Z 34002KT 31/18 A3011 RMK A01 T03070181  RH  047%=      5-min Rain = 0
KFR1 031646Z 35003KT 31/18 A3011 RMK A01 T03100183  RH  047%=      5-min Rain = 0
KFR1 031647Z 01005KT 31/18 A3011 RMK A01 T03120184  RH  047%=      5-min Rain = 0
KFR1 031648Z 02005KT 31/19 A3011 RMK A01 T03140186  RH  047%=      5-min Rain = 0
KFR1 031649Z 02005KT 31/18 A3011 RMK A01 T03130180  RH  045%=      5-min Rain = 0
KFR1 031650Z 02006KT 31/18 A3011 RMK A01 T03090176  RH  045%=      5-min Rain = 0
KFR1 031651Z 03005KT 31/18 A3011 RMK A01 T03060179  RH  047%=      5-min Rain = 0
KFR1 031652Z 02006KT 31/18 A3011 RMK A01 T03060178  RH  046%=      5-min Rain = 0
KFR1 031653Z 02005KT 31/18 A3011 RMK A01 T03060179  RH  046%=      5-min Rain = 0
KFR1 031654Z 02004KT 31/18 A3011 RMK A01 T03070181  RH  047%=      5-min Rain = 0
KFR1 031655Z 00004KT 31/19 A3011 RMK A01 T03100187  RH  048%=      5-min Rain = 0
KFR1 031656Z 02005KT 32/19 A3011 RMK A01 T03160190  RH  047%=      5-min Rain = 0
KFR1 031657Z 01004KT 32/18 A3011 RMK A01 T03170182  RH  045%=      5-min Rain = 0
KFR1 031658Z 05005KT 32/19 A3011 RMK A01 T03170187  RH  046%=      5-min Rain = 0
KFR1 031659Z 05006KT 32/18 A3011 RMK A01 T03170181  RH  044%=      5-min Rain = 0
KFR1 031700Z 07006KT 32/18 A3011 RMK A01 T03170179  RH  044%=      5-min Rain = 0
KFR1 031701Z 09005KT 32/18 A3011 RMK A01 T03160178  RH  044%=      5-min Rain = 0
KFR1 031702Z 10004KT 32/18 A3011 RMK A01 T03160175  RH  043%=      5-min Rain = 0
KFR1 031703Z 08003KT 32/18 A3011 RMK A01 T03150176  RH  043%=      5-min Rain = 0
KFR1 031704Z 06002KT 32/18 A3011 RMK A01 T03150179  RH  044%=      5-min Rain = 0
KFR1 031705Z 08002KT 32/18 A3011 RMK A01 T03150176  RH  043%=      5-min Rain = 0
KFR1 031706Z 12003KT 32/18 A3011 RMK A01 T03160178  RH  044%=      5-min Rain = 0
KFR1 031707Z 08006KT 32/18 A3011 RMK A01 T03180178  RH  043%=      5-min Rain = 0
KFR1 031708Z 12005KT 32/18 A3011 RMK A01 T03170178  RH  044%=      5-min Rain = 0
KFR1 031709Z 14004KT 32/18 A3011 RMK A01 T03170175  RH  043%=      5-min Rain = 0
KFR1 031710Z 13004KT 32/18 A3011 RMK A01 T03170178  RH  043%=      5-min Rain = 0
KFR1 031711Z 08005KT 32/18 A3011 RMK A01 T03180180  RH  044%=      5-min Rain = 0
KFR1 031712Z 07006KT 32/18 A3011 RMK A01 T03190178  RH  043%=      5-min Rain = 0
KFR1 031713Z 11007KT 32/18 A3011 RMK A01 T03200182  RH  044%=      5-min Rain = 0
KFR1 031714Z 12005KT 32/18 A3011 RMK A01 T03220177  RH  042%=      5-min Rain = 0
KFR1 031715Z 10006KT 32/18 A3011 RMK A01 T03210176  RH  042%=      5-min Rain = 0
KFR1 031716Z 11006KT 32/18 A3011 RMK A01 T03190175  RH  042%=      5-min Rain = 0
KFR1 031717Z 08004KT 32/17 A3011 RMK A01 T03170172  RH  042%=      5-min Rain = 0
KFR1 031718Z 09003KT 32/18 A3011 RMK A01 T03160176  RH  043%=      5-min Rain = 0
KFR1 031719Z 10004KT 32/18 A3011 RMK A01 T03180177  RH  043%=      5-min Rain = 0
KFR1 031720Z 09003KT 32/18 A3011 RMK A01 T03200176  RH  042%=      5-min Rain = 0
KFR1 031721Z 09001KT 32/17 A3011 RMK A01 T03210174  RH  041%=      5-min Rain = 0
KFR1 031722Z 12004KT 32/18 A3011 RMK A01 T03230176  RH  042%=      5-min Rain = 0
KFR1 031723Z 12004KT 32/18 A3011 RMK A01 T03240178  RH  042%=      5-min Rain = 0
KFR1 031724Z 15003KT 33/17 A3011 RMK A01 T03250169  RH  039%=      5-min Rain = 0
KFR1 031725Z 12003KT 32/17 A3011 RMK A01 T03220173  RH  041%=      5-min Rain = 0
KFR1 031726Z 11003KT 32/17 A3011 RMK A01 T03220171  RH  041%=      5-min Rain = 0
KFR1 031727Z 12001KT 32/17 A3011 RMK A01 T03220169  RH  040%=      5-min Rain = 0
KFR1 031728Z 16002KT 32/17 A3011 RMK A01 T03210173  RH  041%=      5-min Rain = 0
KFR1 031729Z 19002KT 32/17 A3011 RMK A01 T03230171  RH  040%=      5-min Rain = 0
KFR1 031730Z 24001KT 32/17 A3011 RMK A01 T03210170  RH  041%=      5-min Rain = 0
KFR1 031731Z 28003KT 32/18 A3011 RMK A01 T03210177  RH  042%=      5-min Rain = 0
KFR1 031732Z 29002KT 32/18 A3011 RMK A01 T03230179  RH  042%=      5-min Rain = 0
KFR1 031733Z 03004KT 33/18 A3011 RMK A01 T03260183  RH  043%=      5-min Rain = 0
KFR1 031734Z 03004KT 33/18 A3011 RMK A01 T03270178  RH  041%=      5-min Rain = 0
KFR1 031735Z 01002KT 33/18 A3011 RMK A01 T03260178  RH  041%=      5-min Rain = 0
KFR1 031736Z 35001KT 33/18 A3011 RMK A01 T03260178  RH  041%=      5-min Rain = 0
KFR1 031737Z 05002KT 33/18 A3011 RMK A01 T03270181  RH  042%=      5-min Rain = 0
KFR1 031738Z 06003KT 33/18 A3011 RMK A01 T03290182  RH  042%=      5-min Rain = 0
KFR1 031739Z 04004KT 33/19 A3011 RMK A01 T03290186  RH  043%=      5-min Rain = 0
KFR1 031740Z 02006KT 32/18 A3011 RMK A01 T03240183  RH  043%=      5-min Rain = 0
KFR1 031741Z 01006KT 32/18 A3011 RMK A01 T03200184  RH  045%=      5-min Rain = 0
KFR1 031742Z 01006KT 32/18 A301 RMK A01 T03190182  RH  044%=      5-min Rain = 0
KFR1 031743Z 01005KT 32/18 A301 RMK A01 T03170180  RH  044%=      5-min Rain = 0
KFR1 031744Z 01004KT 32/18 A301 RMK A01 T03160184  RH  045%=      5-min Rain = 0
KFR1 031745Z 34005KT 32/18 A301 RMK A01 T03200184  RH  045%=      5-min Rain = 0
KFR1 031746Z 35005KT 32/18 A301 RMK A01 T03220182  RH  043%=      5-min Rain = 0
KFR1 031747Z 34005KT 32/18 A301 RMK A01 T03230181  RH  043%=      5-min Rain = 0
KFR1 031748Z 34005KT 32/18 A301 RMK A01 T03240176  RH  041%=      5-min Rain = 0
KFR1 031749Z 34004KT 32/18 A301 RMK A01 T03230180  RH  043%=      5-min Rain = 0
KFR1 031750Z 33005KT 33/18 A301 RMK A01 T03250182  RH  043%=      5-min Rain = 0
KFR1 031751Z 32006KT 33/18 A301 RMK A01 T03260178  RH  041%=      5-min Rain = 0
KFR1 031752Z 33006KT 33/18 A301 RMK A01 T03260179  RH  042%=      5-min Rain = 0
KFR1 031753Z 32006KT 32/18 A301 RMK A01 T03240177  RH  042%=      5-min Rain = 0
KFR1 031754Z 32005KT 32/18 A301 RMK A01 T03210178  RH  043%=      5-min Rain = 0
KFR1 031755Z 31004KT 32/18 A301 RMK A01 T03180178  RH  043%=      5-min Rain = 0
KFR1 031756Z 32004KT 32/18 A301 RMK A01 T03160177  RH  043%=      5-min Rain = 0
KFR1 031757Z 32003KT 32/18 A301 RMK A01 T03160176  RH  043%=      5-min Rain = 0
KFR1 031758Z 31004KT 32/18 A301 RMK A01 T03160176  RH  043%=      5-min Rain = 0
KFR1 031759Z 31002KT 32/18 A301 RMK A01 T03170178  RH  044%=      5-min Rain = 0
KFR1 031800Z 31004KT 32/18 A301 RMK A01 T03200176  RH  042%=      5-min Rain = 0
KFR1 031801Z 31004KT 32/18 A301 RMK A01 T03210176  RH  042%=      5-min Rain = 0
KFR1 031802Z 32003KT 32/17 A301 RMK A01 T03210174  RH  042%=      5-min Rain = 0
KFR1 031803Z 30003KT 32/18 A301 RMK A01 T03230180  RH  043%=      5-min Rain = 0
KFR1 031804Z 30003KT 33/18 A301 RMK A01 T03250176  RH  041%=      5-min Rain = 0
KFR1 031805Z 32004KT 33/18 A301 RMK A01 T03260175  RH  041%=      5-min Rain = 0
KFR1 031806Z 34004KT 33/18 A301 RMK A01 T03250180  RH  042%=      5-min Rain = 0
KFR1 031807Z 02004KT 33/18 A301 RMK A01 T03270180  RH  042%=      5-min Rain = 0
KFR1 031808Z 33002KT 33/18 A301 RMK A01 T03280179  RH  041%=      5-min Rain = 0
KFR1 031809Z 34003KT 33/18 A301 RMK A01 T03300182  RH  041%=      5-min Rain = 0
KFR1 031810Z 03003KT 33/18 A301 RMK A01 T03320182  RH  041%=      5-min Rain = 0
KFR1 031811Z 04005KT 33/18 A301 RMK A01 T03330178  RH  040%=      5-min Rain = 0
KFR1 031812Z 02006KT 33/18 A301 RMK A01 T03310180  RH  041%=      5-min Rain = 0
KFR1 031813Z 02005KT 33/17 A301 RMK A01 T03300173  RH  039%=      5-min Rain = 0
KFR1 031814Z 02004KT 33/19 A301 RMK A01 T03300185  RH  042%=      5-min Rain = 0
KFR1 031815Z 02005KT 33/18 A301 RMK A01 T03320181  RH  041%=      5-min Rain = 0
KFR1 031816Z 36005KT 33/18 A301 RMK A01 T03310184  RH  042%=      5-min Rain = 0
KFR1 031817Z 01004KT 33/18 A301 RMK A01 T03290181  RH  041%=      5-min Rain = 0
KFR1 031818Z 02005KT 33/19 A301 RMK A01 T03300187  RH  043%=      5-min Rain = 0
KFR1 031819Z 02007KT 33/18 A3009 RMK A01 T03320178  RH  040%=      5-min Rain = 0
KFR1 031820Z 06007KT 33/18 A3009 RMK A01 T03330178  RH  040%=      5-min Rain = 0
KFR1 031821Z 05008KT 33/18 A3009 RMK A01 T03310176  RH  040%=      5-min Rain = 0
KFR1 031822Z 07008KT 33/17 A3009 RMK A01 T03290172  RH  039%=      5-min Rain = 0
KFR1 031823Z 09008KT 33/17 A3009 RMK A01 T03300166  RH  038%=      5-min Rain = 0
KFR1 031824Z 10008KT 33/17 A3009 RMK A01 T03320167  RH  037%=      5-min Rain = 0
KFR1 031825Z 11008KT 33/17 A3009 RMK A01 T03310171  RH  039%=      5-min Rain = 0
KFR1 031826Z 12006KT 33/17 A3009 RMK A01 T03340166  RH  037%=      5-min Rain = 0
KFR1 031827Z 11006KT 33/17 A3009 RMK A01 T03340165  RH  036%=      5-min Rain = 0
KFR1 031828Z 11006KT 34/16 A3009 RMK A01 T03350160  RH  035%=      5-min Rain = 0
KFR1 031829Z 15004KT 33/16 A3009 RMK A01 T03340162  RH  036%=      5-min Rain = 0
KFR1 031830Z 13003KT 33/17 A3009 RMK A01 T03330165  RH  037%=      5-min Rain = 0
KFR1 031831Z 10005KT 33/17 A3009 RMK A01 T03330168  RH  037%=      5-min Rain = 0
KFR1 031832Z 10004KT 33/17 A3009 RMK A01 T03340169  RH  037%=      5-min Rain = 0
KFR1 031833Z 14007KT 34/16 A3009 RMK A01 T03360164  RH  036%=      5-min Rain = 0
KFR1 031834Z 11008KT 34/16 A3009 RMK A01 T03360162  RH  035%=      5-min Rain = 0
KFR1 031835Z 10009KT 34/16 A3009 RMK A01 T03360159  RH  035%=      5-min Rain = 0
KFR1 031836Z 11010KT 34/16 A3009 RMK A01 T03350160  RH  035%=      5-min Rain = 0
KFR1 031837Z 09006KT 33/16 A3009 RMK A01 T03340160  RH  035%=      5-min Rain = 0
KFR1 031838Z 08005KT 33/16 A3009 RMK A01 T03320164  RH  037%=      5-min Rain = 0
KFR1 031839Z 08005G10KT 33/16 A3009 RMK A01 T03310163  RH  037%=      5-min Rain = 0
KFR1 031840Z 09006KT 33/16 A3009 RMK A01 T03330164  RH  036%=      5-min Rain = 0
KFR1 031841Z 10003KT 33/16 A3009 RMK A01 T03320164  RH  037%=      5-min Rain = 0
KFR1 031842Z 13003KT 33/17 A3009 RMK A01 T03340165  RH  036%=      5-min Rain = 0
KFR1 031843Z 09004KT 34/16 A3008 RMK A01 T03380163  RH  035%=      5-min Rain = 0
KFR1 031844Z 09006KT 34/17 A3008 RMK A01 T03370167  RH  036%=      5-min Rain = 0
KFR1 031845Z 09011G16KT 34/17 A3008 RMK A01 T03380165  RH  036%=      5-min Rain = 0
KFR1 031846Z 14008G13KT 34/16 A3008 RMK A01 T03380160  RH  034%=      5-min Rain = 0
KFR1 031847Z 15007G12KT 34/16 A3008 RMK A01 T03390157  RH  034%=      5-min Rain = 0
KFR1 031848Z 14007KT 34/16 A3008 RMK A01 T03380158  RH  034%=      5-min Rain = 0
KFR1 031849Z 13006G11KT 34/15 A3008 RMK A01 T03400154  RH  033%=      5-min Rain = 0
KFR1 031850Z 11010KT 34/16 A3008 RMK A01 T03430156  RH  033%=      5-min Rain = 0
KFR1 031851Z 12007KT 34/15 A3008 RMK A01 T03420152  RH  032%=      5-min Rain = 0
KFR1 031852Z 11009KT 34/15 A3008 RMK A01 T03400154  RH  033%=      5-min Rain = 0
KFR1 031853Z 11007KT 34/16 A3008 RMK A01 T03400156  RH  033%=      5-min Rain = 0
KFR1 031854Z 15007KT 34/16 A3008 RMK A01 T03400158  RH  034%=      5-min Rain = 0
KFR1 031855Z 12005KT 34/16 A3008 RMK A01 T03440161  RH  034%=      5-min Rain = 0
KFR1 031856Z 12005KT 35/16 A3008 RMK A01 T03480157  RH  032%=      5-min Rain = 0
KFR1 031857Z 11009KT 35/16 A3008 RMK A01 T03490159  RH  032%=      5-min Rain = 0
KFR1 031858Z 11008KT 35/15 A3008 RMK A01 T03460150  RH  031%=      5-min Rain = 0
KFR1 031859Z 10008KT 34/15 A3008 RMK A01 T03400150  RH  032%=      5-min Rain = 0
KFR1 031900Z 09004KT 34/15 A3008 RMK A01 T03370148  RH  032%=      5-min Rain = 0
KFR1 031901Z 11003KT 33/15 A3008 RMK A01 T03340145  RH  032%=      5-min Rain = 0
KFR1 031902Z 11005KT 33/15 A3008 RMK A01 T03340152  RH  034%=      5-min Rain = 0
KFR1 031903Z 09007KT 34/15 A3008 RMK A01 T03370149  RH  032%=      5-min Rain = 0
KFR1 031904Z 13010KT 34/15 A3008 RMK A01 T03420154  RH  032%=      5-min Rain = 0
KFR1 031905Z 17004KT 35/15 A3008 RMK A01 T03470154  RH  032%=      5-min Rain = 0
KFR1 031906Z 18008KT 35/15 A3008 RMK A01 T03510152  RH  030%=      5-min Rain = 0
KFR1 031907Z 18009KT 35/15 A3008 RMK A01 T03510150  RH  030%=      5-min Rain = 0
KFR1 031908Z 18006KT 35/15 A3008 RMK A01 T03480145  RH  030%=      5-min Rain = 0
KFR1 031909Z 18006KT 35/15 A3008 RMK A01 T03450146  RH  030%=      5-min Rain = 0
KFR1 031910Z 21006KT 34/15 A3008 RMK A01 T03440149  RH  031%=      5-min Rain = 0
KFR1 031911Z 19006KT 34/15 A3008 RMK A01 T03430148  RH  031%=      5-min Rain = 0
KFR1 031912Z 15005KT 34/15 A3008 RMK A01 T03430146  RH  031%=      5-min Rain = 0
KFR1 031913Z 13004KT 34/15 A3008 RMK A01 T03440149  RH  031%=      5-min Rain = 0
KFR1 031914Z 15007KT 35/16 A3008 RMK A01 T03470157  RH  032%=      5-min Rain = 0
KFR1 031915Z 16007KT 35/15 A3008 RMK A01 T03490149  RH  030%=      5-min Rain = 0
KFR1 031916Z 15003KT 35/15 A3008 RMK A01 T03460148  RH  031%=      5-min Rain = 0
KFR1 031917Z 15004KT 34/15 A3007 RMK A01 T03440153  RH  032%=      5-min Rain = 0
KFR1 031918Z 10007KT 35/15 A3007 RMK A01 T03450154  RH  032%=      5-min Rain = 0
KFR1 031919Z 11010KT 35/16 A3007 RMK A01 T03460156  RH  032%=      5-min Rain = 0
KFR1 031920Z 15008KT 35/15 A3007 RMK A01 T03470153  RH  031%=      5-min Rain = 0
KFR1 031921Z 13006G12KT 35/15 A3007 RMK A01 T03470150  RH  031%=      5-min Rain = 0
KFR1 031922Z 11007KT 35/15 A3007 RMK A01 T03460146  RH  030%=      5-min Rain = 0
KFR1 031923Z 19008KT 34/15 A3007 RMK A01 T03430148  RH  031%=      5-min Rain = 0
KFR1 031924Z 19006KT 34/15 A3007 RMK A01 T03440148  RH  031%=      5-min Rain = 0
KFR1 031925Z 21002KT 34/15 A3007 RMK A01 T03440151  RH  032%=      5-min Rain = 0
KFR1 031926Z 27001KT 35/16 A3007 RMK A01 T03460158  RH  033%=      5-min Rain = 0
KFR1 031927Z 16001KT 35/16 A3007 RMK A01 T03500157  RH  032%=      5-min Rain = 0
KFR1 031928Z 15004KT 35/16 A3007 RMK A01 T03520160  RH  032%=      5-min Rain = 0
KFR1 031929Z 16006KT 35/16 A3007 RMK A01 T03540158  RH  031%=      5-min Rain = 0
KFR1 031930Z 16007KT 35/16 A3007 RMK A01 T03510159  RH  032%=      5-min Rain = 0
KFR1 031931Z 11008KT 35/16 A3007 RMK A01 T03500159  RH  032%=      5-min Rain = 0
KFR1 031932Z 11005KT 35/15 A3007 RMK A01 T03470154  RH  032%=      5-min Rain = 0
KFR1 031933Z 13005KT 34/15 A3007 RMK A01 T03420152  RH  032%=      5-min Rain = 0
KFR1 031934Z 12006KT 34/16 A3007 RMK A01 T03420156  RH  033%=      5-min Rain = 0
KFR1 031935Z 15005KT 35/16 A3007 RMK A01 T03450158  RH  033%=      5-min Rain = 0
KFR1 031936Z 14003KT 35/16 A3007 RMK A01 T03490157  RH  032%=      5-min Rain = 0
KFR1 031937Z 15006KT 35/16 A3007 RMK A01 T03510155  RH  031%=      5-min Rain = 0
KFR1 031938Z 10006KT 35/16 A3007 RMK A01 T03510155  RH  031%=      5-min Rain = 0
KFR1 031939Z 09009KT 35/15 A3007 RMK A01 T03490154  RH  031%=      5-min Rain = 0
KFR1 031940Z 12007KT 35/16 A3007 RMK A01 T03470156  RH  032%=      5-min Rain = 0
KFR1 031941Z 17010KT 35/15 A3007 RMK A01 T03470154  RH  032%=      5-min Rain = 0
KFR1 031942Z 17007KT 35/16 A3007 RMK A01 T03460157  RH  032%=      5-min Rain = 0
KFR1 031943Z 13008KT 35/15 A3007 RMK A01 T03450151  RH  031%=      5-min Rain = 0
KFR1 031944Z 15005KT 34/15 A3007 RMK A01 T03430149  RH  031%=      5-min Rain = 0
KFR1 031945Z 12005KT 34/15 A3007 RMK A01 T03430151  RH  032%=      5-min Rain = 0
KFR1 031946Z 11010KT 35/15 A3007 RMK A01 T03460148  RH  031%=      5-min Rain = 0
KFR1 031947Z 11007G12KT 35/15 A3007 RMK A01 T03450145  RH  030%=      5-min Rain = 0
KFR1 031948Z 11004KT 34/14 A3006 RMK A01 T03420143  RH  030%=      5-min Rain = 0
KFR1 031949Z 12008G13KT 34/15 A3006 RMK A01 T03410147  RH  031%=      5-min Rain = 0
KFR1 031950Z 16009KT 35/15 A3006 RMK A01 T03460153  RH  031%=      5-min Rain = 0
KFR1 031951Z 17011KT 35/15 A3006 RMK A01 T03520154  RH  031%=      5-min Rain = 0
KFR1 031952Z 16011KT 35/15 A3006 RMK A01 T03530149  RH  030%=      5-min Rain = 0
KFR1 031953Z 17009KT 35/15 A3006 RMK A01 T03530148  RH  029%=      5-min Rain = 0
KFR1 031954Z 17007KT 35/15 A3006 RMK A01 T03530151  RH  030%=      5-min Rain = 0
KFR1 031955Z 15009KT 36/15 A3006 RMK A01 T03550147  RH  029%=      5-min Rain = 0
KFR1 031956Z 15008KT 36/14 A3006 RMK A01 T03560140  RH  027%=      5-min Rain = 0
KFR1 031957Z 16010G15KT 35/14 A3006 RMK A01 T03540140  RH  028%=      5-min Rain = 0
KFR1 031958Z 16011KT 35/15 A3006 RMK A01 T03510149  RH  030%=      5-min Rain = 0
KFR1 031959Z 16008KT 35/15 A3006 RMK A01 T03500148  RH  030%=      5-min Rain = 0
KFR1 032000Z 15005KT 35/15 A3006 RMK A01 T03490149  RH  030%=      5-min Rain = 0
KFR1 032001Z 15004KT 35/15 A3006 RMK A01 T03470148  RH  030%=      5-min Rain = 0
KFR1 032002Z 12001KT 35/14 A3006 RMK A01 T03460138  RH  029%=      5-min Rain = 0
KFR1 032003Z 02000KT 35/14 A3006 RMK A01 T03450140  RH  029%=      5-min Rain = 0
KFR1 032004Z 35001KT 35/14 A3006 RMK A01 T03450144  RH  030%=      5-min Rain = 0
KFR1 032005Z 35002KT 35/14 A3006 RMK A01 T03460143  RH  030%=      5-min Rain = 0
KFR1 032006Z 30002KT 35/15 A3006 RMK A01 T03460146  RH  030%=      5-min Rain = 0
KFR1 032007Z 24003KT 35/14 A3006 RMK A01 T03470144  RH  030%=      5-min Rain = 0
KFR1 032008Z 22005KT 35/15 A3006 RMK A01 T03490146  RH  030%=      5-min Rain = 0
KFR1 032009Z 19006G11KT 35/15 A3006 RMK A01 T03510145  RH  029%=      5-min Rain = 0
KFR1 032010Z 18008KT 35/14 A3006 RMK A01 T03510144  RH  029%=      5-min Rain = 0
KFR1 032011Z 18007KT 35/15 A3006 RMK A01 T03510146  RH  029%=      5-min Rain = 0
KFR1 032012Z 19007KT 35/15 A3006 RMK A01 T03510147  RH  030%=      5-min Rain = 0
KFR1 032013Z 15007KT 35/15 A3006 RMK A01 T03530149  RH  030%=      5-min Rain = 0
KFR1 032014Z 13006KT 35/15 A3006 RMK A01 T03540149  RH  030%=      5-min Rain = 0
KFR1 032015Z 13008KT 35/15 A3006 RMK A01 T03520146  RH  029%=      5-min Rain = 0
KFR1 032016Z 13007KT 35/15 A3006 RMK A01 T03480146  RH  030%=      5-min Rain = 0
KFR1 032017Z 16007KT 35/15 A3006 RMK A01 T03480148  RH  030%=      5-min Rain = 0
KFR1 032018Z 15004KT 35/14 A3006 RMK A01 T03500144  RH  029%=      5-min Rain = 0
KFR1 032019Z 17004KT 35/14 A3006 RMK A01 T03500144  RH  029%=      5-min Rain = 0
KFR1 032020Z 16003KT 35/14 A3006 RMK A01 T03500143  RH  029%=      5-min Rain = 0
KFR1 032021Z 15003KT 35/15 A3005 RMK A01 T03500150  RH  030%=      5-min Rain = 0
KFR1 032022Z 16006G12KT 35/15 A3005 RMK A01 T03540152  RH  030%=      5-min Rain = 0
KFR1 032023Z 15010KT 36/15 A3005 RMK A01 T03570150  RH  029%=      5-min Rain = 0
KFR1 032024Z 17008KT 36/15 A3005 RMK A01 T03550149  RH  029%=      5-min Rain = 0
KFR1 032025Z 14007KT 35/15 A3005 RMK A01 T03530149  RH  030%=      5-min Rain = 0
KFR1 032026Z 13006KT 35/15 A3005 RMK A01 T03540152  RH  030%=      5-min Rain = 0
KFR1 032027Z 11008KT 36/15 A3005 RMK A01 T03550148  RH  029%=      5-min Rain = 0
KFR1 032028Z 11006KT 35/15 A3005 RMK A01 T03510147  RH  030%=      5-min Rain = 0
KFR1 032029Z 15004KT 35/15 A3005 RMK A01 T03510150  RH  030%=      5-min Rain = 0
KFR1 032030Z 12003KT 35/15 A3005 RMK A01 T03530154  RH  031%=      5-min Rain = 0
KFR1 032031Z 12006KT 35/15 A3005 RMK A01 T03540154  RH  030%=      5-min Rain = 0
KFR1 032032Z 13008KT 36/15 A3005 RMK A01 T03560146  RH  029%=      5-min Rain = 0
KFR1 032033Z 12009KT 35/14 A3005 RMK A01 T03540142  RH  028%=      5-min Rain = 0
KFR1 032034Z 12007KT 35/14 A3005 RMK A01 T03520143  RH  029%=      5-min Rain = 0
KFR1 032035Z 12006KT 35/15 A3005 RMK A01 T03510145  RH  029%=      5-min Rain = 0
KFR1 032036Z 11005KT 35/14 A3005 RMK A01 T03510138  RH  028%=      5-min Rain = 0
KFR1 032037Z 10005KT 35/14 A3005 RMK A01 T03470137  RH  028%=      5-min Rain = 0
KFR1 032038Z 13003KT 34/14 A3005 RMK A01 T03440141  RH  030%=      5-min Rain = 0
KFR1 032039Z 20004KT 35/15 A3005 RMK A01 T03450145  RH  030%=      5-min Rain = 0
KFR1 032040Z 13009G14KT 35/15 A3005 RMK A01 T03470146  RH  030%=      5-min Rain = 0
KFR1 032041Z 16006KT 35/15 A3005 RMK A01 T03510148  RH  030%=      5-min Rain = 0
KFR1 032042Z 20004G9KT 35/15 A3005 RMK A01 T03520145  RH  029%=      5-min Rain = 0
KFR1 032043Z 14006KT 35/15 A3005 RMK A01 T03530150  RH  030%=      5-min Rain = 0
KFR1 032044Z 14005KT 36/15 A3005 RMK A01 T03560149  RH  029%=      5-min Rain = 0
KFR1 032045Z 15008KT 36/15 A3005 RMK A01 T03550148  RH  029%=      5-min Rain = 0
KFR1 032046Z 14008KT 35/15 A3005 RMK A01 T03540150  RH  030%=      5-min Rain = 0
KFR1 032047Z 13010KT 35/15 A3005 RMK A01 T03540151  RH  030%=      5-min Rain = 0
KFR1 032048Z 17008KT 36/15 A3005 RMK A01 T03560151  RH  030%=      5-min Rain = 0
KFR1 032049Z 17008KT 36/15 A3005 RMK A01 T03590150  RH  029%=      5-min Rain = 0
KFR1 032050Z 17008G13KT 36/15 A3005 RMK A01 T03600147  RH  028%=      5-min Rain = 0
KFR1 032051Z 17009KT 36/15 A3005 RMK A01 T03580145  RH  028%=      5-min Rain = 0
KFR1 032052Z 19009KT 36/15 A3005 RMK A01 T03560145  RH  028%=      5-min Rain = 0
KFR1 032053Z 20008KT 35/15 A3004 RMK A01 T03540145  RH  029%=      5-min Rain = 0
KFR1 032054Z 19007KT 35/15 A3004 RMK A01 T03520146  RH  029%=      5-min Rain = 0
KFR1 032055Z 19007KT 35/15 A3004 RMK A01 T03510145  RH  029%=      5-min Rain = 0
KFR1 032056Z 17010KT 35/15 A3004 RMK A01 T03520150  RH  030%=      5-min Rain = 0
KFR1 032057Z 15005KT 36/14 A3004 RMK A01 T03550143  RH  028%=      5-min Rain = 0
KFR1 032058Z 17007G16KT 35/15 A3004 RMK A01 T03530147  RH  029%=      5-min Rain = 0
KFR1 032059Z 14009G15KT 36/15 A3004 RMK A01 T03550149  RH  029%=      5-min Rain = 0
KFR1 032100Z 12010KT 36/15 A3004 RMK A01 T03570147  RH  029%=      5-min Rain = 0
KFR1 032101Z 13015KT 36/14 A3004 RMK A01 T03560142  RH  028%=      5-min Rain = 0
KFR1 032102Z 14011G18KT 35/14 A3004 RMK A01 T03520141  RH  028%=      5-min Rain = 0
KFR1 032103Z 14009KT 35/14 A3004 RMK A01 T03510141  RH  028%=      5-min Rain = 0
KFR1 032104Z 14006KT 35/14 A3004 RMK A01 T03500140  RH  028%=      5-min Rain = 0
KFR1 032105Z 12009KT 35/14 A3004 RMK A01 T03500141  RH  029%=      5-min Rain = 0
KFR1 032106Z 13005G10KT 35/14 A3004 RMK A01 T03500141  RH  029%=      5-min Rain = 0
KFR1 032107Z 11009KT 35/15 A3004 RMK A01 T03520145  RH  029%=      5-min Rain = 0
KFR1 032108Z 12005KT 35/15 A3004 RMK A01 T03540146  RH  029%=      5-min Rain = 0
KFR1 032109Z 17004G11KT 36/14 A3004 RMK A01 T03550144  RH  028%=      5-min Rain = 0
KFR1 032110Z 18008G13KT 36/14 A3004 RMK A01 T03560143  RH  028%=      5-min Rain = 0
KFR1 032111Z 16008KT 36/14 A3004 RMK A01 T03560140  RH  028%=      5-min Rain = 0
KFR1 032112Z 16010KT 36/14 A3004 RMK A01 T03550140  RH  028%=      5-min Rain = 0
KFR1 032113Z 18012KT 35/14 A3004 RMK A01 T03540141  RH  028%=      5-min Rain = 0
KFR1 032114Z 19011KT 35/14 A3004 RMK A01 T03540140  RH  028%=      5-min Rain = 0
KFR1 032115Z 17012KT 35/14 A3004 RMK A01 T03540139  RH  028%=      5-min Rain = 0
KFR1 032116Z 17011KT 36/14 A3004 RMK A01 T03550139  RH  027%=      5-min Rain = 0
KFR1 032117Z 16011KT 36/13 A3004 RMK A01 T03560134  RH  026%=      5-min Rain = 0
KFR1 032118Z 14006KT 35/13 A3004 RMK A01 T03530132  RH  026%=      5-min Rain = 0
KFR1 032119Z 18008KT 35/14 A3004 RMK A01 T03520136  RH  027%=      5-min Rain = 0
KFR1 032120Z 18010KT 35/14 A3004 RMK A01 T03540135  RH  027%=      5-min Rain = 0
KFR1 032121Z 20009KT 36/14 A3004 RMK A01 T03550136  RH  027%=      5-min Rain = 0
KFR1 032122Z 19009KT 35/13 A3004 RMK A01 T03530132  RH  026%=      5-min Rain = 0
KFR1 032123Z 18006KT 35/13 A3004 RMK A01 T03490134  RH  027%=      5-min Rain = 0
KFR1 032124Z 14007KT 35/13 A3004 RMK A01 T03500132  RH  027%=      5-min Rain = 0
KFR1 032125Z 14008KT 35/13 A3003 RMK A01 T03510125  RH  026%=      5-min Rain = 0
KFR1 032126Z 16009KT 35/13 A3003 RMK A01 T03510130  RH  027%=      5-min Rain = 0
KFR1 032127Z 15006KT 35/13 A3004 RMK A01 T03520130  RH  026%=      5-min Rain = 0
KFR1 032128Z 16006KT 35/13 A3004 RMK A01 T03540131  RH  026%=      5-min Rain = 0
KFR1 032129Z 18009KT 36/13 A3004 RMK A01 T03570133  RH  026%=      5-min Rain = 0
KFR1 032130Z 18011KT 36/13 A3004 RMK A01 T03580131  RH  026%=      5-min Rain = 0
KFR1 032131Z 18011KT 36/13 A3004 RMK A01 T03590127  RH  025%=      5-min Rain = 0
KFR1 032132Z 17012KT 36/13 A3004 RMK A01 T03570129  RH  025%=      5-min Rain = 0
KFR1 032133Z 18011KT 36/13 A3004 RMK A01 T03570128  RH  025%=      5-min Rain = 0
KFR1 032134Z 20012KT 35/12 A3003 RMK A01 T03530123  RH  025%=      5-min Rain = 0
KFR1 032135Z 20011KT 35/13 A3004 RMK A01 T03510126  RH  026%=      5-min Rain = 0
KFR1 032136Z 20012KT 35/13 A3003 RMK A01 T03520125  RH  025%=      5-min Rain = 0
KFR1 032137Z 20013KT 35/13 A3003 RMK A01 T03520126  RH  026%=      5-min Rain = 0
KFR1 032138Z 20013KT 35/12 A3003 RMK A01 T03520123  RH  025%=      5-min Rain = 0
KFR1 032139Z 21012KT 35/12 A3003 RMK A01 T03490123  RH  026%=      5-min Rain = 0
KFR1 032140Z 20011KT 35/13 A3003 RMK A01 T03500126  RH  026%=      5-min Rain = 0
KFR1 032141Z 19010KT 35/12 A3003 RMK A01 T03520124  RH  025%=      5-min Rain = 0
KFR1 032142Z 19009KT 35/13 A3004 RMK A01 T03510127  RH  026%=      5-min Rain = 0
KFR1 032143Z 17008KT 35/13 A3004 RMK A01 T03520128  RH  026%=      5-min Rain = 0
KFR1 032144Z 14008KT 35/13 A3004 RMK A01 T03540129  RH  026%=      5-min Rain = 0
KFR1 032145Z 13008KT 36/13 A3004 RMK A01 T03550127  RH  025%=      5-min Rain = 0
KFR1 032146Z 16007KT 35/13 A3004 RMK A01 T03540127  RH  025%=      5-min Rain = 0
KFR1 032147Z 15006KT 35/13 A3004 RMK A01 T03540127  RH  026%=      5-min Rain = 0
KFR1 032148Z 16008KT 35/13 A3004 RMK A01 T03540129  RH  026%=      5-min Rain = 0
KFR1 032149Z 17009KT 36/13 A3004 RMK A01 T03560130  RH  026%=      5-min Rain = 0
KFR1 032150Z 17013KT 36/13 A3004 RMK A01 T03570129  RH  025%=      5-min Rain = 0
KFR1 032151Z 17010KT 36/13 A3004 RMK A01 T03580132  RH  026%=      5-min Rain = 0
KFR1 032152Z 16011KT 36/13 A3004 RMK A01 T03610132  RH  025%=      5-min Rain = 0
KFR1 032153Z 16007KT 36/13 A3004 RMK A01 T03610129  RH  025%=      5-min Rain = 0
KFR1 032154Z 20010KT 36/13 A3004 RMK A01 T03600131  RH  025%=      5-min Rain = 0
KFR1 032155Z 19009KT 36/12 A3004 RMK A01 T03560124  RH  025%=      5-min Rain = 0
KFR1 032156Z 19011KT 35/13 A3004 RMK A01 T03530125  RH  025%=      5-min Rain = 0
KFR1 032157Z 17009KT 35/13 A3004 RMK A01 T03520128  RH  026%=      5-min Rain = 0
KFR1 032158Z 17010KT 36/13 A3004 RMK A01 T03560127  RH  025%=      5-min Rain = 0
KFR1 032159Z 16008KT 36/13 A3004 RMK A01 T03570125  RH  025%=      5-min Rain = 0
KFR1 032200Z 16008KT 36/13 A3004 RMK A01 T03570127  RH  025%=      5-min Rain = 0
KFR1 032201Z 16007KT 36/13 A3004 RMK A01 T03580126  RH  025%=      5-min Rain = 0
KFR1 032202Z 16004KT 36/12 A3004 RMK A01 T03580124  RH  025%=      5-min Rain = 0
KFR1 032203Z 15005KT 36/12 A3004 RMK A01 T03570124  RH  025%=      5-min Rain = 0
KFR1 032204Z 13005KT 36/13 A3003 RMK A01 T03570129  RH  025%=      5-min Rain = 0
KFR1 032205Z 15007KT 36/13 A3003 RMK A01 T03580128  RH  025%=      5-min Rain = 0
KFR1 032206Z 17007G13KT 36/13 A3003 RMK A01 T03580125  RH  025%=      5-min Rain = 0
KFR1 032207Z 16007KT 36/12 A3003 RMK A01 T03570124  RH  025%=      5-min Rain = 0
KFR1 032208Z 17007KT 36/13 A3003 RMK A01 T03560125  RH  025%=      5-min Rain = 0
KFR1 032209Z 17010KT 36/13 A3003 RMK A01 T03550126  RH  025%=      5-min Rain = 0
KFR1 032210Z 17013KT 36/13 A3003 RMK A01 T03560125  RH  025%=      5-min Rain = 0
KFR1 032211Z 17012KT 36/12 A3003 RMK A01 T03550123  RH  025%=      5-min Rain = 0
KFR1 032212Z 17011KT 35/12 A3003 RMK A01 T03540123  RH  025%=      5-min Rain = 0
KFR1 032213Z 17010KT 35/12 A3003 RMK A01 T03530124  RH  025%=      5-min Rain = 0
KFR1 032214Z 15009KT 35/13 A3003 RMK A01 T03540127  RH  026%=      5-min Rain = 0
KFR1 032215Z 16007KT 36/12 A3003 RMK A01 T03550124  RH  025%=      5-min Rain = 0
KFR1 032216Z 15007KT 35/12 A3003 RMK A01 T03540123  RH  025%=      5-min Rain = 0
KFR1 032217Z 15005KT 35/12 A3003 RMK A01 T03530123  RH  025%=      5-min Rain = 0
KFR1 032218Z 14005KT 35/13 A3003 RMK A01 T03520125  RH  026%=      5-min Rain = 0
KFR1 032219Z 15006KT 35/12 A3003 RMK A01 T03520122  RH  025%=      5-min Rain = 0
KFR1 032220Z 18005KT 35/13 A3003 RMK A01 T03520126  RH  026%=      5-min Rain = 0
KFR1 032221Z 18004KT 36/13 A3003 RMK A01 T03550125  RH  025%=      5-min Rain = 0
KFR1 032222Z 16006KT 36/12 A3003 RMK A01 T03560124  RH  025%=      5-min Rain = 0
KFR1 032223Z 17006KT 36/13 A3003 RMK A01 T03560127  RH  025%=      5-min Rain = 0
KFR1 032224Z 19011KT 36/12 A3003 RMK A01 T03580124  RH  024%=      5-min Rain = 0
KFR1 032225Z 19011KT 36/12 A3003 RMK A01 T03570123  RH  024%=      5-min Rain = 0
KFR1 032226Z 17008KT 36/12 A3003 RMK A01 T03550123  RH  025%=      5-min Rain = 0
KFR1 032227Z 16008KT 36/12 A3003 RMK A01 T03550121  RH  024%=      5-min Rain = 0
KFR1 032228Z 16007KT 36/12 A3003 RMK A01 T03560123  RH  025%=      5-min Rain = 0
KFR1 032229Z 15005KT 36/12 A3003 RMK A01 T03560123  RH  025%=      5-min Rain = 0
KFR1 032230Z 18005KT 36/13 A3003 RMK A01 T03560126  RH  025%=      5-min Rain = 0
KFR1 032231Z 15006G12KT 36/13 A3003 RMK A01 T03560126  RH  025%=      5-min Rain = 0
KFR1 032232Z 15009G14KT 36/13 A3003 RMK A01 T03570125  RH  025%=      5-min Rain = 0
KFR1 032233Z 13010G15KT 36/12 A3002 RMK A01 T03560124  RH  025%=      5-min Rain = 0
KFR1 032234Z 14007KT 36/12 A3002 RMK A01 T03560124  RH  025%=      5-min Rain = 0
KFR1 032235Z 17005KT 36/13 A3002 RMK A01 T03550126  RH  025%=      5-min Rain = 0
KFR1 032236Z 14007KT 36/13 A3002 RMK A01 T03570127  RH  025%=      5-min Rain = 0
KFR1 032237Z 17006G14KT 36/13 A3002 RMK A01 T03580125  RH  025%=      5-min Rain = 0
KFR1 032238Z 17012KT 36/12 A3002 RMK A01 T03580123  RH  024%=      5-min Rain = 0
KFR1 032239Z 16007KT 36/13 A3002 RMK A01 T03570128  RH  025%=      5-min Rain = 0
KFR1 032240Z 14007KT 36/13 A3002 RMK A01 T03590128  RH  025%=      5-min Rain = 0
KFR1 032241Z 17008KT 36/13 A3002 RMK A01 T03590132  RH  026%=      5-min Rain = 0
KFR1 032242Z 18010KT 36/13 A3002 RMK A01 T03620131  RH  025%=      5-min Rain = 0
KFR1 032243Z 13007KT 36/13 A3002 RMK A01 T03590128  RH  025%=      5-min Rain = 0
KFR1 032244Z 13007KT 36/13 A3002 RMK A01 T03550127  RH  025%=      5-min Rain = 0
KFR1 032245Z 16005KT 35/13 A3002 RMK A01 T03530134  RH  027%=      5-min Rain = 0
KFR1 032246Z 18007KT 36/13 A3002 RMK A01 T03560126  RH  025%=      5-min Rain = 0
KFR1 032247Z 15010G17KT 36/13 A3002 RMK A01 T03560130  RH  026%=      5-min Rain = 0
KFR1 032248Z 17011KT 36/14 A3002 RMK A01 T03550135  RH  027%=      5-min Rain = 0
KFR1 032249Z 15007KT 36/14 A3002 RMK A01 T03550137  RH  027%=      5-min Rain = 0
KFR1 032250Z 17005KT 36/14 A3002 RMK A01 T03550138  RH  027%=      5-min Rain = 0
KFR1 032251Z 16005KT 36/14 A3002 RMK A01 T03560141  RH  028%=      5-min Rain = 0
KFR1 032252Z 15007G12KT 36/14 A3002 RMK A01 T03560141  RH  028%=      5-min Rain = 0
KFR1 032253Z 17007KT 36/14 A3002 RMK A01 T03560144  RH  028%=      5-min Rain = 0
KFR1 032254Z 18011KT 36/14 A3002 RMK A01 T03570141  RH  028%=      5-min Rain = 0
KFR1 032255Z 18012KT 36/14 A3002 RMK A01 T03560135  RH  027%=      5-min Rain = 0
KFR1 032256Z 17010KT 35/14 A3002 RMK A01 T03520137  RH  027%=      5-min Rain = 0
KFR1 032257Z 17009KT 35/14 A3002 RMK A01 T03520136  RH  027%=      5-min Rain = 0
KFR1 032258Z 16007KT 35/13 A3002 RMK A01 T03520134  RH  027%=      5-min Rain = 0
KFR1 032259Z 17007KT 35/14 A3002 RMK A01 T03510137  RH  028%=      5-min Rain = 0
KFR1 032300Z 12007KT 35/14 A3002 RMK A01 T03510141  RH  029%=      5-min Rain = 0
KFR1 032301Z 13007KT 35/15 A3002 RMK A01 T03500145  RH  029%=      5-min Rain = 0
KFR1 032302Z 16007KT 35/15 A3002 RMK A01 T03510147  RH  030%=      5-min Rain = 0
KFR1 032303Z 16009KT 35/15 A3002 RMK A01 T03520146  RH  029%=      5-min Rain = 0
KFR1 032304Z 13010KT 35/15 A3002 RMK A01 T03530147  RH  029%=      5-min Rain = 0
KFR1 032305Z 13009G15KT 35/15 A3002 RMK A01 T03500150  RH  030%=      5-min Rain = 0
KFR1 032306Z 13008G13KT 35/15 A3002 RMK A01 T03500147  RH  030%=      5-min Rain = 0
KFR1 032307Z 15010G15KT 35/15 A3002 RMK A01 T03480146  RH  030%=      5-min Rain = 0
KFR1 032308Z 15007KT 35/15 A3002 RMK A01 T03490148  RH  030%=      5-min Rain = 0
KFR1 032309Z 13007KT 35/15 A3001 RMK A01 T03500147  RH  030%=      5-min Rain = 0
KFR1 032310Z 14006G11KT 35/15 A3001 RMK A01 T03490149  RH  030%=      5-min Rain = 0
KFR1 032311Z 12011G16KT 35/15 A3001 RMK A01 T03490149  RH  030%=      5-min Rain = 0
KFR1 032312Z 11013KT 35/15 A3001 RMK A01 T03480148  RH  030%=      5-min Rain = 0
KFR1 032313Z 12012KT 35/15 A3001 RMK A01 T03470149  RH  031%=      5-min Rain = 0
KFR1 032314Z 12011KT 35/15 A3001 RMK A01 T03480149  RH  031%=      5-min Rain = 0
KFR1 032315Z 12013KT 35/15 A3001 RMK A01 T03490148  RH  030%=      5-min Rain = 0
KFR1 032316Z 13014KT 35/15 A3001 RMK A01 T03480146  RH  030%=      5-min Rain = 0
KFR1 032317Z 15010G15KT 35/15 A3001 RMK A01 T03470145  RH  030%=      5-min Rain = 0
KFR1 032318Z 16012KT 35/15 A3001 RMK A01 T03470145  RH  030%=      5-min Rain = 0
KFR1 032319Z 16012KT 35/14 A3001 RMK A01 T03480136  RH  028%=      5-min Rain = 0
KFR1 032320Z 15008KT 35/14 A3001 RMK A01 T03480136  RH  028%=      5-min Rain = 0
KFR1 032321Z 17009KT 35/14 A3001 RMK A01 T03480140  RH  029%=      5-min Rain = 0
KFR1 032322Z 17010KT 35/14 A3001 RMK A01 T03490142  RH  029%=      5-min Rain = 0
KFR1 032323Z 16011KT 35/14 A3001 RMK A01 T03490137  RH  028%=      5-min Rain = 0
KFR1 032324Z 16008KT 35/14 A3001 RMK A01 T03490135  RH  028%=      5-min Rain = 0
KFR1 032325Z 17009KT 35/14 A3001 RMK A01 T03490137  RH  028%=      5-min Rain = 0
KFR1 032326Z 15009KT 35/14 A3001 RMK A01 T03490137  RH  028%=      5-min Rain = 0
KFR1 032327Z 14010G15KT 35/14 A3001 RMK A01 T03490136  RH  028%=      5-min Rain = 0
KFR1 032328Z 16012KT 35/13 A3001 RMK A01 T03470134  RH  028%=      5-min Rain = 0
KFR1 032329Z 16010KT 35/14 A3001 RMK A01 T03470137  RH  028%=      5-min Rain = 0
KFR1 032330Z 16008KT 35/14 A3001 RMK A01 T03460137  RH  029%=      5-min Rain = 0
KFR1 032331Z 16010KT 35/14 A3001 RMK A01 T03460138  RH  029%=      5-min Rain = 0
KFR1 032332Z 17008KT 35/14 A3001 RMK A01 T03470138  RH  029%=      5-min Rain = 0
KFR1 032333Z 16006KT 35/14 A3001 RMK A01 T03470139  RH  029%=      5-min Rain = 0
KFR1 032334Z 17008KT 35/14 A3001 RMK A01 T03480138  RH  028%=      5-min Rain = 0
KFR1 032335Z 17007KT 35/14 A3001 RMK A01 T03480140  RH  029%=      5-min Rain = 0
KFR1 032336Z 17013KT 35/14 A3001 RMK A01 T03490140  RH  029%=      5-min Rain = 0
KFR1 032337Z 17010KT 35/14 A3001 RMK A01 T03490141  RH  029%=      5-min Rain = 0
KFR1 032338Z 17009KT 35/14 A3001 RMK A01 T03480144  RH  029%=      5-min Rain = 0
KFR1 032339Z 17011KT 35/14 A3001 RMK A01 T03480144  RH  029%=      5-min Rain = 0
KFR1 032340Z 16010KT 35/14 A3001 RMK A01 T03480139  RH  028%=      5-min Rain = 0
KFR1 032341Z 17009KT 35/14 A3001 RMK A01 T03480139  RH  028%=      5-min Rain = 0
KFR1 032342Z 18009KT 35/14 A3001 RMK A01 T03480139  RH  029%=      5-min Rain = 0
KFR1 032343Z 17008KT 35/14 A3001 RMK A01 T03480142  RH  029%=      5-min Rain = 0
KFR1 032344Z 16009KT 35/14 A3001 RMK A01 T03480143  RH  029%=      5-min Rain = 0
KFR1 032345Z 15004KT 35/14 A3001 RMK A01 T03480138  RH  028%=      5-min Rain = 0
KFR1 032346Z 15004KT 35/14 A3001 RMK A01 T03480139  RH  029%=      5-min Rain = 0
KFR1 032347Z 13006KT 35/14 A3001 RMK A01 T03480139  RH  028%=      5-min Rain = 0
KFR1 032348Z 14004KT 35/14 A3001 RMK A01 T03480136  RH  028%=      5-min Rain = 0
KFR1 032349Z 15007KT 35/14 A3001 RMK A01 T03480137  RH  028%=      5-min Rain = 0
KFR1 032350Z 17010G15KT 35/15 A3001 RMK A01 T03480146  RH  030%=      5-min Rain = 0
KFR1 032351Z 16008KT 35/15 A3001 RMK A01 T03490150  RH  030%=      5-min Rain = 0
KFR1 032352Z 17010KT 35/15 A3001 RMK A01 T03500151  RH  030%=      5-min Rain = 0
KFR1 032353Z 16007KT 35/15 A3001 RMK A01 T03490151  RH  031%=      5-min Rain = 0
KFR1 032354Z 16008KT 35/15 A3001 RMK A01 T03490152  RH  031%=      5-min Rain = 0
KFR1 032355Z 17012KT 35/15 A3001 RMK A01 T03500148  RH  030%=      5-min Rain = 0
KFR1 032356Z 16009KT 35/15 A3001 RMK A01 T03490147  RH  030%=      5-min Rain = 0
KFR1 032357Z 16010KT 35/15 A3002 RMK A01 T03480145  RH  030%=      5-min Rain = 0
KFR1 032358Z 16011KT 35/15 A3002 RMK A01 T03480145  RH  030%=      5-min Rain = 0
KFR1 032359Z 15009KT 35/15 A3002 RMK A01 T03470147  RH  030%=      5-min Rain = 0
KFR1 040000Z 15007KT 35/15 A3001 RMK A01 T03460149  RH  031%=      5-min Rain = 0
KFR1 040001Z 15006G11KT 35/15 A3001 RMK A01 T03460150  RH  031%=      5-min Rain = 0
KFR1 040002Z 16008KT 35/15 A3001 RMK A01 T03460150  RH  031%=      5-min Rain = 0
KFR1 040003Z 15007KT 35/15 A3001 RMK A01 T03460151  RH  031%=      5-min Rain = 0
KFR1 040004Z 15009KT 35/15 A3001 RMK A01 T03450150  RH  031%=      5-min Rain = 0
KFR1 040005Z 16009KT 34/15 A3001 RMK A01 T03440152  RH  032%=      5-min Rain = 0
KFR1 040006Z 16009G14KT 34/15 A3002 RMK A01 T03440150  RH  031%=      5-min Rain = 0
KFR1 040007Z 15010KT 34/15 A3002 RMK A01 T03430148  RH  031%=      5-min Rain = 0
KFR1 040008Z 15010KT 34/15 A3002 RMK A01 T03410145  RH  031%=      5-min Rain = 0
KFR1 040009Z 15008KT 34/14 A3002 RMK A01 T03400143  RH  031%=      5-min Rain = 0
KFR1 040010Z 16006KT 34/14 A3002 RMK A01 T03380144  RH  031%=      5-min Rain = 0
KFR1 040011Z 16007KT 34/15 A3002 RMK A01 T03380146  RH  031%=      5-min Rain = 0
KFR1 040012Z 16009KT 34/15 A3002 RMK A01 T03380145  RH  031%=      5-min Rain = 0
KFR1 040013Z 17008KT 34/14 A3002 RMK A01 T03370144  RH  031%=      5-min Rain = 0
KFR1 040014Z 17007G12KT 34/14 A3002 RMK A01 T03380144  RH  031%=      5-min Rain = 0
KFR1 040015Z 18012KT 34/14 A3002 RMK A01 T03370143  RH  031%=      5-min Rain = 0
KFR1 040016Z 16008KT 34/14 A3002 RMK A01 T03370143  RH  031%=      5-min Rain = 0
KFR1 040017Z 17008KT 34/14 A3002 RMK A01 T03360142  RH  031%=      5-min Rain = 0
KFR1 040018Z 15008KT 34/14 A3002 RMK A01 T03370143  RH  031%=      5-min Rain = 0
KFR1 040019Z 15009G14KT 34/14 A3002 RMK A01 T03360142  RH  031%=      5-min Rain = 0
KFR1 040020Z 15008G13KT 34/14 A3002 RMK A01 T03360141  RH  031%=      5-min Rain = 0
KFR1 040021Z 15008KT 34/14 A3002 RMK A01 T03360141  RH  031%=      5-min Rain = 0
KFR1 040022Z 15007G13KT 34/14 A3002 RMK A01 T03360140  RH  031%=      5-min Rain = 0
KFR1 040023Z 15007KT 34/14 A3002 RMK A01 T03360140  RH  031%=      5-min Rain = 0
KFR1 040024Z 15006KT 34/14 A3002 RMK A01 T03360141  RH  031%=      5-min Rain = 0
KFR1 040025Z 14007KT 34/14 A3002 RMK A01 T03360140  RH  031%=      5-min Rain = 0
KFR1 040026Z 15006KT 34/14 A3002 RMK A01 T03350139  RH  031%=      5-min Rain = 0
KFR1 040027Z 16005KT 34/14 A3002 RMK A01 T03350140  RH  031%=      5-min Rain = 0
KFR1 040028Z 15004KT 34/14 A3002 RMK A01 T03350141  RH  031%=      5-min Rain = 0
KFR1 040029Z 15007G13KT 34/14 A3002 RMK A01 T03350142  RH  031%=      5-min Rain = 0
KFR1 040030Z 15007KT 34/14 A3002 RMK A01 T03350142  RH  031%=      5-min Rain = 0
KFR1 040031Z 15008KT 34/14 A3002 RMK A01 T03350142  RH  031%=      5-min Rain = 0
KFR1 040032Z 16006KT 34/14 A3002 RMK A01 T03350142  RH  031%=      5-min Rain = 0
KFR1 040033Z 16007KT 34/14 A3002 RMK A01 T03350143  RH  032%=      5-min Rain = 0
KFR1 040034Z 16007KT 33/14 A3002 RMK A01 T03340142  RH  032%=      5-min Rain = 0
KFR1 040035Z 17008KT 33/14 A3002 RMK A01 T03340144  RH  032%=      5-min Rain = 0
KFR1 040036Z 16008G13KT 33/15 A3002 RMK A01 T03340145  RH  032%=      5-min Rain = 0
KFR1 040037Z 17011KT 33/14 A3002 RMK A01 T03340144  RH  032%=      5-min Rain = 0
KFR1 040038Z 16010KT 33/14 A3002 RMK A01 T03340144  RH  032%=      5-min Rain = 0
KFR1 040039Z 17011KT 33/14 A3002 RMK A01 T03340144  RH  032%=      5-min Rain = 0
KFR1 040040Z 17009KT 33/14 A3002 RMK A01 T03340144  RH  032%=      5-min Rain = 0
KFR1 040041Z 17011KT 33/14 A3002 RMK A01 T03340143  RH  032%=      5-min Rain = 0
KFR1 040042Z 18009KT 33/14 A3002 RMK A01 T03340142  RH  032%=      5-min Rain = 0
KFR1 040043Z 17008KT 33/14 A3002 RMK A01 T03340144  RH  032%=      5-min Rain = 0
KFR1 040044Z 17011KT 33/14 A3002 RMK A01 T03340142  RH  032%=      5-min Rain = 0
KFR1 040045Z 17010KT 33/14 A3002 RMK A01 T03330143  RH  032%=      5-min Rain = 0
KFR1 040046Z 17010KT 33/14 A3002 RMK A01 T03330143  RH  032%=      5-min Rain = 0
KFR1 040047Z 17009KT 33/14 A3002 RMK A01 T03330144  RH  032%=      5-min Rain = 0
KFR1 040048Z 17010KT 33/15 A3002 RMK A01 T03330145  RH  032%=      5-min Rain = 0
KFR1 040049Z 18011KT 33/15 A3002 RMK A01 T03330147  RH  033%=      5-min Rain = 0
KFR1 040050Z 17009KT 33/15 A3002 RMK A01 T03320149  RH  033%=      5-min Rain = 0
KFR1 040051Z 17009KT 33/15 A3002 RMK A01 T03320150  RH  034%=      5-min Rain = 0
KFR1 040052Z 17010KT 33/15 A3002 RMK A01 T03320151  RH  034%=      5-min Rain = 0
KFR1 040053Z 17012KT 33/15 A3002 RMK A01 T03320150  RH  034%=      5-min Rain = 0
KFR1 040054Z 17010KT 33/15 A3002 RMK A01 T03310150  RH  034%=      5-min Rain = 0
KFR1 040055Z 17011KT 33/15 A3002 RMK A01 T03320151  RH  034%=      5-min Rain = 0
KFR1 040056Z 17010KT 33/15 A3002 RMK A01 T03320151  RH  034%=      5-min Rain = 0
KFR1 040057Z 17009KT 33/15 A3002 RMK A01 T03310151  RH  034%=      5-min Rain = 0
KFR1 040058Z 18009KT 33/15 A3002 RMK A01 T03310151  RH  034%=      5-min Rain = 0
KFR1 040059Z 17009KT 33/15 A3002 RMK A01 T03310150  RH  034%=      5-min Rain = 0
KFR1 040100Z 17011KT 33/15 A3002 RMK A01 T03300150  RH  034%=      5-min Rain = 0
KFR1 040101Z 17010KT 33/15 A3002 RMK A01 T03300151  RH  034%=      5-min Rain = 0
KFR1 040102Z 17008KT 33/15 A3002 RMK A01 T03310151  RH  034%=      5-min Rain = 0
KFR1 040103Z 17009KT 33/15 A3002 RMK A01 T03300151  RH  034%=      5-min Rain = 0
KFR1 040104Z 17007KT 33/15 A3002 RMK A01 T03300152  RH  034%=      5-min Rain = 0
KFR1 040105Z 18008KT 33/15 A3002 RMK A01 T03290152  RH  035%=      5-min Rain = 0
KFR1 040106Z 18010KT 33/15 A3002 RMK A01 T03290152  RH  035%=      5-min Rain = 0
KFR1 040107Z 18008KT 33/15 A3002 RMK A01 T03290152  RH  035%=      5-min Rain = 0
KFR1 040108Z 17012KT 33/15 A3002 RMK A01 T03290152  RH  035%=      5-min Rain = 0
KFR1 040109Z 17009KT 33/15 A3002 RMK A01 T03290152  RH  035%=      5-min Rain = 0
KFR1 040110Z 18009KT 33/15 A3003 RMK A01 T03280152  RH  035%=      5-min Rain = 0
KFR1 040111Z 18010KT 33/15 A3003 RMK A01 T03280153  RH  035%=      5-min Rain = 0
KFR1 040112Z 17008KT 33/15 A3003 RMK A01 T03280153  RH  035%=      5-min Rain = 0
KFR1 040113Z 17009KT 33/15 A3003 RMK A01 T03280153  RH  035%=      5-min Rain = 0
KFR1 040114Z 17008KT 33/15 A3003 RMK A01 T03270153  RH  035%=      5-min Rain = 0
KFR1 040115Z 17010KT 33/15 A3003 RMK A01 T03270153  RH  035%=      5-min Rain = 0
KFR1 040116Z 17008G13KT 33/15 A3003 RMK A01 T03270154  RH  035%=      5-min Rain = 0
KFR1 040117Z 17009KT 33/15 A3003 RMK A01 T03270154  RH  035%=      5-min Rain = 0
KFR1 040118Z 17010KT 33/15 A3003 RMK A01 T03270154  RH  035%=      5-min Rain = 0
KFR1 040119Z 17009KT 33/15 A3003 RMK A01 T03260154  RH  035%=      5-min Rain = 0
KFR1 040120Z 17008KT 33/15 A3003 RMK A01 T03260154  RH  035%=      5-min Rain = 0
KFR1 040121Z 17007KT 33/15 A3003 RMK A01 T03260154  RH  036%=      5-min Rain = 0
KFR1 040122Z 16006KT 33/15 A3003 RMK A01 T03250154  RH  036%=      5-min Rain = 0
KFR1 040123Z 16006KT 33/15 A3003 RMK A01 T03250154  RH  036%=      5-min Rain = 0
KFR1 040124Z 17005KT 33/16 A3004 RMK A01 T03250155  RH  036%=      5-min Rain = 0
KFR1 040125Z 16007KT 32/16 A3004 RMK A01 T03240155  RH  036%=      5-min Rain = 0
KFR1 040126Z 16009KT 32/15 A3004 RMK A01 T03240154  RH  036%=      5-min Rain = 0
KFR1 040127Z 16008KT 32/15 A3004 RMK A01 T03240154  RH  036%=      5-min Rain = 0
KFR1 040128Z 16006KT 32/15 A3004 RMK A01 T03230154  RH  036%=      5-min Rain = 0
KFR1 040129Z 16007KT 32/16 A3004 RMK A01 T03240155  RH  036%=      5-min Rain = 0
KFR1 040130Z 16007KT 32/16 A3004 RMK A01 T03240155  RH  036%=      5-min Rain = 0
KFR1 040131Z 16007KT 32/16 A3004 RMK A01 T03230155  RH  036%=      5-min Rain = 0
KFR1 040132Z 17007KT 32/16 A3004 RMK A01 T03230155  RH  036%=      5-min Rain = 0
KFR1 040133Z 17007KT 32/16 A3004 RMK A01 T03230155  RH  036%=      5-min Rain = 0
KFR1 040134Z 16008KT 32/16 A3004 RMK A01 T03220155  RH  036%=      5-min Rain = 0
KFR1 040135Z 17006KT 32/16 A3004 RMK A01 T03220155  RH  036%=      5-min Rain = 0
KFR1 040136Z 17007KT 32/16 A3004 RMK A01 T03220155  RH  036%=      5-min Rain = 0
KFR1 040137Z 17006KT 32/15 A3004 RMK A01 T03220154  RH  036%=      5-min Rain = 0
KFR1 040138Z 16006KT 32/16 A3004 RMK A01 T03220155  RH  037%=      5-min Rain = 0
KFR1 040139Z 16007KT 32/15 A3004 RMK A01 T03210154  RH  036%=      5-min Rain = 0
KFR1 040140Z 16007KT 32/15 A3004 RMK A01 T03210153  RH  036%=      5-min Rain = 0
KFR1 040141Z 16008KT 32/15 A3004 RMK A01 T03210152  RH  036%=      5-min Rain = 0
KFR1 040142Z 16008KT 32/15 A3004 RMK A01 T03210152  RH  036%=      5-min Rain = 0
KFR1 040143Z 16007KT 32/15 A3004 RMK A01 T03210152  RH  036%=      5-min Rain = 0
KFR1 040144Z 16007KT 32/15 A3004 RMK A01 T03210152  RH  036%=      5-min Rain = 0
KFR1 040145Z 16007KT 32/15 A3004 RMK A01 T03210152  RH  036%=      5-min Rain = 0
KFR1 040146Z 16006KT 32/15 A3004 RMK A01 T03200152  RH  036%=      5-min Rain = 0
KFR1 040147Z 16006KT 32/15 A3004 RMK A01 T03200152  RH  036%=      5-min Rain = 0
KFR1 040148Z 16006KT 32/15 A3004 RMK A01 T03200153  RH  036%=      5-min Rain = 0
KFR1 040149Z 16006KT 32/15 A3004 RMK A01 T03200153  RH  036%=      5-min Rain = 0
KFR1 040150Z 15004KT 32/15 A3004 RMK A01 T03190153  RH  037%=      5-min Rain = 0
KFR1 040151Z 16005KT 32/15 A3004 RMK A01 T03190153  RH  037%=      5-min Rain = 0
KFR1 040152Z 16005KT 32/15 A3004 RMK A01 T03180153  RH  037%=      5-min Rain = 0
KFR1 040153Z 16004KT 32/15 A3004 RMK A01 T03180153  RH  037%=      5-min Rain = 0
KFR1 040154Z 16006KT 32/15 A3004 RMK A01 T03170153  RH  037%=      5-min Rain = 0
KFR1 040155Z 16006KT 32/15 A3004 RMK A01 T03170153  RH  037%=      5-min Rain = 0
KFR1 040156Z 15005KT 32/15 A3004 RMK A01 T03170153  RH  037%=      5-min Rain = 0
KFR1 040157Z 15005KT 32/15 A3004 RMK A01 T03170153  RH  037%=      5-min Rain = 0
KFR1 040158Z 15004KT 32/15 A3004 RMK A01 T03160153  RH  037%=      5-min Rain = 0
KFR1 040159Z 15004KT 32/15 A3005 RMK A01 T03160153  RH  037%=      5-min Rain = 0
KFR1 040200Z 15004KT 32/15 A3005 RMK A01 T03160152  RH  037%=      5-min Rain = 0
KFR1 040201Z 15003KT 32/15 A3005 RMK A01 T03150152  RH  037%=      5-min Rain = 0
KFR1 040202Z 14004KT 32/15 A3005 RMK A01 T03160152  RH  037%=      5-min Rain = 0
KFR1 040203Z 14003KT 32/15 A3005 RMK A01 T03150152  RH  037%=      5-min Rain = 0
KFR1 040204Z 15003KT 32/15 A3005 RMK A01 T03150153  RH  038%=      5-min Rain = 0
KFR1 040205Z 15003KT 31/15 A3005 RMK A01 T03140152  RH  038%=      5-min Rain = 0
KFR1 040206Z 15003KT 31/15 A3005 RMK A01 T03140152  RH  038%=      5-min Rain = 0
KFR1 040207Z 15003KT 31/15 A3005 RMK A01 T03140152  RH  038%=      5-min Rain = 0
KFR1 040208Z 14003KT 31/15 A3005 RMK A01 T03140152  RH  038%=      5-min Rain = 0
KFR1 040209Z 14003KT 31/15 A3005 RMK A01 T03140152  RH  038%=      5-min Rain = 0
KFR1 040210Z 15003KT 31/15 A3005 RMK A01 T03130153  RH  038%=      5-min Rain = 0
KFR1 040211Z 15004KT 31/15 A3005 RMK A01 T03130153  RH  038%=      5-min Rain = 0
KFR1 040212Z 15003KT 31/15 A3005 RMK A01 T03120153  RH  038%=      5-min Rain = 0
KFR1 040213Z 15003KT 31/15 A3005 RMK A01 T03110153  RH  038%=      5-min Rain = 0
KFR1 040214Z 16003KT 31/15 A3005 RMK A01 T03110152  RH  038%=      5-min Rain = 0
KFR1 040215Z 15003KT 31/15 A3006 RMK A01 T03100152  RH  038%=      5-min Rain = 0
KFR1 040216Z 15003KT 31/15 A3006 RMK A01 T03100152  RH  038%=      5-min Rain = 0
KFR1 040217Z 15003KT 31/15 A3006 RMK A01 T03100152  RH  039%=      5-min Rain = 0
KFR1 040218Z 15002KT 31/15 A3006 RMK A01 T03090152  RH  039%=      5-min Rain = 0
KFR1 040219Z 14003KT 31/15 A3006 RMK A01 T03090152  RH  039%=      5-min Rain = 0
KFR1 040220Z 15002KT 31/15 A3006 RMK A01 T03090152  RH  039%=      5-min Rain = 0
KFR1 040221Z 14002KT 31/15 A3006 RMK A01 T03090152  RH  039%=      5-min Rain = 0
KFR1 040222Z 13000KT 31/15 A3007 RMK A01 T03090152  RH  039%=      5-min Rain = 0
KFR1 040223Z 35001KT 31/15 A3007 RMK A01 T03080152  RH  039%=      5-min Rain = 0
KFR1 040224Z 33004G9KT 31/15 A3008 RMK A01 T03090153  RH  039%=      5-min Rain = 0
KFR1 040225Z 34013G22KT 31/16 A3008 RMK A01 T03080157  RH  040%=      5-min Rain = 0
KFR1 040226Z 34014G19KT 30/15 A3008 RMK A01 T03000151  RH  040%=      5-min Rain = 0
KFR1 040227Z 33011KT 29/15 A3009 RMK A01 T02860146  RH  043%=      5-min Rain = 0
KFR1 040228Z 32012G19KT 28/15 A3009 RMK A01 T02770146  RH  045%=      5-min Rain = 0
KFR1 040229Z 31014KT 27/15 A3009 RMK A01 T02730145  RH  045%=      5-min Rain = 0
KFR1 040230Z 32012KT 27/15 A3009 RMK A01 T02710147  RH  047%=      5-min Rain = 0
KFR1 040231Z 33009G15KT 27/15 A3008 RMK A01 T02690150  RH  048%=      5-min Rain = 0
KFR1 040232Z 32011G19KT 27/15 A3008 RMK A01 T02670150  RH  049%=      5-min Rain = 0
KFR1 040233Z 33015G21KT 27/15 A3008 RMK A01 T02670149  RH  048%=      5-min Rain = 0
KFR1 040234Z 34018KT 27/15 A3008 RMK A01 T02660147  RH  048%=      5-min Rain = 0
KFR1 040235Z 33019G24KT 27/15 A3008 RMK A01 T02650148  RH  048%=      5-min Rain = 0
KFR1 040236Z 33013G19KT 27/15 A3008 RMK A01 T02650149  RH  049%=      5-min Rain = 0
KFR1 040237Z 32016G24KT 26/15 A3008 RMK A01 T02640150  RH  049%=      5-min Rain = 0
KFR1 040238Z 32017G23KT 26/15 A3008 RMK A01 T02640149  RH  049%=      5-min Rain = 0
KFR1 040239Z 34015G23KT 26/15 A3009 RMK A01 T02640150  RH  050%=      5-min Rain = 0
KFR1 040240Z 34015G20KT 26/15 A3009 RMK A01 T02630151  RH  050%=      5-min Rain = 0
KFR1 040241Z 33015KT 26/15 A3009 RMK A01 T02620150  RH  050%=      5-min Rain = 0
KFR1 040242Z 34008KT 26/15 A3009 RMK A01 T02620152  RH  051%=      5-min Rain = 0
KFR1 040243Z 34011G17KT 26/15 A3009 RMK A01 T02610153  RH  051%=      5-min Rain = 0
KFR1 040244Z 35012KT 26/15 A301 RMK A01 T02600151  RH  051%=      5-min Rain = 0
KFR1 040245Z 34009KT 26/15 A301 RMK A01 T02600151  RH  051%=      5-min Rain = 0
KFR1 040246Z 36009KT 26/15 A301 RMK A01 T02590153  RH  052%=      5-min Rain = 0
KFR1 040247Z 36007KT 26/15 A301 RMK A01 T02590154  RH  052%=      5-min Rain = 0
KFR1 040248Z 00006KT 26/15 A301 RMK A01 T02590154  RH  052%=      5-min Rain = 0
KFR1 040249Z 34008KT 26/15 A301 RMK A01 T02580152  RH  052%=      5-min Rain = 0
KFR1 040250Z 35006KT 26/15 A301 RMK A01 T02580152  RH  052%=      5-min Rain = 0
KFR1 040251Z 01004KT 26/15 A301 RMK A01 T02580153  RH  052%=      5-min Rain = 0
KFR1 040252Z 35006G12KT 26/15 A301 RMK A01 T02580154  RH  053%=      5-min Rain = 0
KFR1 040253Z 34006KT 26/16 A301 RMK A01 T02570155  RH  053%=      5-min Rain = 0
KFR1 040254Z 33008G15KT 26/16 A301 RMK A01 T02560156  RH  054%=      5-min Rain = 0
KFR1 040255Z 33006KT 26/16 A301 RMK A01 T02560156  RH  054%=      5-min Rain = 0
KFR1 040256Z 34005KT 26/16 A3011 RMK A01 T02560157  RH  055%=      5-min Rain = 0
KFR1 040257Z 34006KT 26/16 A3011 RMK A01 T02550158  RH  055%=      5-min Rain = 0
KFR1 040258Z 01003KT 26/16 A3011 RMK A01 T02550159  RH  055%=      5-min Rain = 0
KFR1 040259Z 00005KT 26/16 A3011 RMK A01 T02550159  RH  055%=      5-min Rain = 0
KFR1 040300Z 35006KT 25/16 A3011 RMK A01 T02540158  RH  055%=      5-min Rain = 0
KFR1 040301Z 34005KT 25/16 A3011 RMK A01 T02540158  RH  055%=      5-min Rain = 0
KFR1 040302Z 35006KT 25/16 A3011 RMK A01 T02530158  RH  056%=      5-min Rain = 0
KFR1 040303Z 00005G10KT 25/16 A3011 RMK A01 T02530159  RH  056%=      5-min Rain = 0
KFR1 040304Z 36006G11KT 25/16 A3011 RMK A01 T02530159  RH  056%=      5-min Rain = 0
KFR1 040305Z 35006KT 25/16 A3011 RMK A01 T02530158  RH  056%=      5-min Rain = 0
KFR1 040306Z 35004KT 25/16 A3011 RMK A01 T02530158  RH  056%=      5-min Rain = 0
KFR1 040307Z 35005KT 25/16 A3011 RMK A01 T02530158  RH  056%=      5-min Rain = 0
KFR1 040308Z 32008KT 25/16 A3011 RMK A01 T02520159  RH  056%=      5-min Rain = 0
KFR1 040309Z 34004G9KT 25/16 A3011 RMK A01 T02520158  RH  056%=      5-min Rain = 0
KFR1 040310Z 33004KT 25/16 A3011 RMK A01 T02520158  RH  056%=      5-min Rain = 0
KFR1 040311Z 33004KT 25/16 A3011 RMK A01 T02520159  RH  056%=      5-min Rain = 0
KFR1 040312Z 35004KT 25/16 A3011 RMK A01 T02520160  RH  057%=      5-min Rain = 0
KFR1 040313Z 34004KT 25/16 A3011 RMK A01 T02520161  RH  057%=      5-min Rain = 0
KFR1 040314Z 32004KT 25/16 A3011 RMK A01 T02510161  RH  057%=      5-min Rain = 0
KFR1 040315Z 34004KT 25/16 A3011 RMK A01 T02510161  RH  057%=      5-min Rain = 0
KFR1 040316Z 33004KT 25/16 A3011 RMK A01 T02510161  RH  058%=      5-min Rain = 0
KFR1 040317Z 33007KT 25/16 A3011 RMK A01 T02500161  RH  058%=      5-min Rain = 0
KFR1 040318Z 34006KT 25/16 A3011 RMK A01 T02500163  RH  058%=      5-min Rain = 0
KFR1 040319Z 33002KT 25/16 A3012 RMK A01 T02500164  RH  059%=      5-min Rain = 0
KFR1 040320Z 29004KT 25/16 A3012 RMK A01 T02500162  RH  058%=      5-min Rain = 0
KFR1 040321Z 31005KT 25/16 A3012 RMK A01 T02500162  RH  058%=      5-min Rain = 0
KFR1 040322Z 32003KT 25/16 A3012 RMK A01 T02500162  RH  058%=      5-min Rain = 0
KFR1 040323Z 29001KT 25/16 A3012 RMK A01 T02500162  RH  058%=      5-min Rain = 0
KFR1 040324Z 27001KT 25/16 A3012 RMK A01 T02500162  RH  058%=      5-min Rain = 0
KFR1 040325Z 22001KT 25/16 A3012 RMK A01 T02500161  RH  058%=      5-min Rain = 0
KFR1 040326Z 26002KT 25/16 A3012 RMK A01 T02500161  RH  058%=      5-min Rain = 0
KFR1 040327Z 29003KT 25/16 A3012 RMK A01 T02500162  RH  058%=      5-min Rain = 0
KFR1 040328Z 23001KT 25/16 A3012 RMK A01 T02500162  RH  058%=      5-min Rain = 0
KFR1 040329Z 19001KT 25/16 A3012 RMK A01 T02500161  RH  058%=      5-min Rain = 0
KFR1 040330Z 31002KT 25/16 A3012 RMK A01 T02500162  RH  058%=      5-min Rain = 0
KFR1 040331Z 33005KT 25/16 A3012 RMK A01 T02500161  RH  058%=      5-min Rain = 0
KFR1 040332Z 32005KT 25/16 A3012 RMK A01 T02500160  RH  057%=      5-min Rain = 0
KFR1 040333Z 32006KT 25/16 A3012 RMK A01 T02500159  RH  057%=      5-min Rain = 0
KFR1 040334Z 32005KT 25/16 A3012 RMK A01 T02490159  RH  057%=      5-min Rain = 0
KFR1 040335Z 31005KT 25/16 A3012 RMK A01 T02500160  RH  058%=      5-min Rain = 0
KFR1 040336Z 33005KT 25/16 A3012 RMK A01 T02500160  RH  057%=      5-min Rain = 0
KFR1 040337Z 34005KT 25/16 A3012 RMK A01 T02500159  RH  057%=      5-min Rain = 0
KFR1 040338Z 33004KT 25/16 A3012 RMK A01 T02500159  RH  057%=      5-min Rain = 0
KFR1 040339Z 33005KT 25/16 A3012 RMK A01 T02500160  RH  057%=      5-min Rain = 0
KFR1 040340Z 34006KT 25/16 A3012 RMK A01 T02500160  RH  057%=      5-min Rain = 0
KFR1 040341Z 33008KT 25/16 A3012 RMK A01 T02500158  RH  057%=      5-min Rain = 0
KFR1 040342Z 33008KT 25/16 A3012 RMK A01 T02500157  RH  056%=      5-min Rain = 0
KFR1 040343Z 34006KT 25/16 A3012 RMK A01 T02500158  RH  057%=      5-min Rain = 0
KFR1 040344Z 32008KT 25/16 A3012 RMK A01 T02500159  RH  057%=      5-min Rain = 0
KFR1 040345Z 33010KT 25/16 A3012 RMK A01 T02500157  RH  056%=      5-min Rain = 0
KFR1 040346Z 32008KT 25/16 A3012 RMK A01 T02500155  RH  056%=      5-min Rain = 0
KFR1 040347Z 33008KT 25/16 A3012 RMK A01 T02500155  RH  056%=      5-min Rain = 0
KFR1 040348Z 32008KT 25/16 A3012 RMK A01 T02500156  RH  056%=      5-min Rain = 0
KFR1 040349Z 31008KT 25/16 A3012 RMK A01 T02490156  RH  056%=      5-min Rain = 0
KFR1 040350Z 33008KT 25/15 A3012 RMK A01 T02490154  RH  055%=      5-min Rain = 0
KFR1 040351Z 31008KT 25/16 A3012 RMK A01 T02490155  RH  056%=      5-min Rain = 0
KFR1 040352Z 32009KT 25/15 A3012 RMK A01 T02500154  RH  055%=      5-min Rain = 0
KFR1 040353Z 31005KT 25/15 A3012 RMK A01 T02490153  RH  055%=      5-min Rain = 0
KFR1 040354Z 31006KT 25/15 A3012 RMK A01 T02490153  RH  055%=      5-min Rain = 0
KFR1 040355Z 32006KT 25/15 A3012 RMK A01 T02490153  RH  055%=      5-min Rain = 0
KFR1 040356Z 31005KT 25/15 A3012 RMK A01 T02490152  RH  055%=      5-min Rain = 0
KFR1 040357Z 31005KT 25/15 A3012 RMK A01 T02490153  RH  055%=      5-min Rain = 0
KFR1 040358Z 29004KT 25/15 A3012 RMK A01 T02490152  RH  055%=      5-min Rain = 0
KFR1 040359Z 30004KT 25/15 A3012 RMK A01 T02480151  RH  055%=      5-min Rain = 0
KFR1 040400Z 30004KT 25/15 A3012 RMK A01 T02480151  RH  055%=      5-min Rain = 0
KFR1 040401Z 31005KT 25/15 A3012 RMK A01 T02480150  RH  054%=      5-min Rain = 0
KFR1 040402Z 30003KT 25/15 A3012 RMK A01 T02480150  RH  054%=      5-min Rain = 0
KFR1 040403Z 30002KT 25/15 A3012 RMK A01 T02480150  RH  054%=      5-min Rain = 0
KFR1 040404Z 30004KT 25/15 A3012 RMK A01 T02480150  RH  054%=      5-min Rain = 0
KFR1 040405Z 33003KT 25/15 A3013 RMK A01 T02480150  RH  054%=      5-min Rain = 0
KFR1 040406Z 32002KT 25/15 A3013 RMK A01 T02480150  RH  055%=      5-min Rain = 0
KFR1 040407Z 34003KT 25/15 A3013 RMK A01 T02470151  RH  055%=      5-min Rain = 0
KFR1 040408Z 02005KT 25/15 A3013 RMK A01 T02470151  RH  055%=      5-min Rain = 0
KFR1 040409Z 03007KT 25/15 A3013 RMK A01 T02470152  RH  055%=      5-min Rain = 0
KFR1 040410Z 02007KT 25/15 A3014 RMK A01 T02470152  RH  056%=      5-min Rain = 0
KFR1 040411Z 04008KT 25/15 A3014 RMK A01 T02460152  RH  055%=      5-min Rain = 0
KFR1 040412Z 04008KT 25/15 A3014 RMK A01 T02470151  RH  055%=      5-min Rain = 0
KFR1 040413Z 04009KT 25/15 A3014 RMK A01 T02470151  RH  055%=      5-min Rain = 0
KFR1 040414Z 02007KT 25/15 A3013 RMK A01 T02480150  RH  054%=      5-min Rain = 0
KFR1 040415Z 36005KT 25/15 A3013 RMK A01 T02480149  RH  054%=      5-min Rain = 0
KFR1 040416Z 32003KT 25/15 A3013 RMK A01 T02480149  RH  054%=      5-min Rain = 0
KFR1 040417Z 31004KT 25/15 A3013 RMK A01 T02480150  RH  054%=      5-min Rain = 0
KFR1 040418Z 00004KT 25/15 A3013 RMK A01 T02480151  RH  054%=      5-min Rain = 0
KFR1 040419Z 04005KT 25/15 A3013 RMK A01 T02480150  RH  055%=      5-min Rain = 0
KFR1 040420Z 04007KT 25/15 A3014 RMK A01 T02480151  RH  055%=      5-min Rain = 0
KFR1 040421Z 05007KT 25/15 A3014 RMK A01 T02470151  RH  055%=      5-min Rain = 0
KFR1 040422Z 05009KT 25/15 A3014 RMK A01 T02470152  RH  055%=      5-min Rain = 0
KFR1 040423Z 05007KT 25/15 A3014 RMK A01 T02480152  RH  055%=      5-min Rain = 0
KFR1 040424Z 05007KT 25/15 A3014 RMK A01 T02480150  RH  055%=      5-min Rain = 0
KFR1 040425Z 05005KT 25/15 A3013 RMK A01 T02490150  RH  054%=      5-min Rain = 0
KFR1 040426Z 05003KT 25/15 A3013 RMK A01 T02500150  RH  054%=      5-min Rain = 0
KFR1 040427Z 05004KT 25/15 A3013 RMK A01 T02500150  RH  054%=      5-min Rain = 0
KFR1 040428Z 05007KT 25/15 A3013 RMK A01 T02500150  RH  054%=      5-min Rain = 0
KFR1 040429Z 06009KT 25/15 A3013 RMK A01 T02500148  RH  053%=      5-min Rain = 0
KFR1 040430Z 06009KT 25/15 A3013 RMK A01 T02500148  RH  053%=      5-min Rain = 0
KFR1 040431Z 06010KT 25/15 A3013 RMK A01 T02500146  RH  052%=      5-min Rain = 0
KFR1 040432Z 06009KT 25/14 A3013 RMK A01 T02510144  RH  051%=      5-min Rain = 0
KFR1 040433Z 06010KT 25/14 A3013 RMK A01 T02510141  RH  050%=      5-min Rain = 0
KFR1 040434Z 06005KT 25/14 A3013 RMK A01 T02520139  RH  049%=      5-min Rain = 0
KFR1 040435Z 06005KT 25/14 A3013 RMK A01 T02530137  RH  049%=      5-min Rain = 0
KFR1 040436Z 06008KT 25/14 A3013 RMK A01 T02530136  RH  048%=      5-min Rain = 0
KFR1 040437Z 06009KT 25/14 A3013 RMK A01 T02530137  RH  049%=      5-min Rain = 0
KFR1 040438Z 06011KT 25/14 A3013 RMK A01 T02530139  RH  049%=      5-min Rain = 0
KFR1 040439Z 06012KT 25/14 A3013 RMK A01 T02530137  RH  049%=      5-min Rain = 0
KFR1 040440Z 06012KT 25/14 A3013 RMK A01 T02530135  RH  048%=      5-min Rain = 0
KFR1 040441Z 05008KT 25/14 A3013 RMK A01 T02530135  RH  048%=      5-min Rain = 0
KFR1 040442Z 04007KT 25/14 A3013 RMK A01 T02530135  RH  048%=      5-min Rain = 0
KFR1 040443Z 04006KT 25/14 A3013 RMK A01 T02530135  RH  048%=      5-min Rain = 0
KFR1 040444Z 05010KT 25/14 A3013 RMK A01 T02530135  RH  048%=      5-min Rain = 0
KFR1 040445Z 05010KT 25/13 A3013 RMK A01 T02530134  RH  048%=      5-min Rain = 0
KFR1 040446Z 05010KT 25/14 A3013 RMK A01 T02530135  RH  048%=      5-min Rain = 0
KFR1 040447Z 04009KT 25/14 A3013 RMK A01 T02530135  RH  048%=      5-min Rain = 0
KFR1 040448Z 04006KT 25/14 A3013 RMK A01 T02530135  RH  048%=      5-min Rain = 0
KFR1 040449Z 05008KT 25/13 A3013 RMK A01 T02520134  RH  048%=      5-min Rain = 0
KFR1 040450Z 05008KT 25/13 A3013 RMK A01 T02520134  RH  048%=      5-min Rain = 0
KFR1 040451Z 04008KT 25/13 A3013 RMK A01 T02530134  RH  048%=      5-min Rain = 0
KFR1 040452Z 06008KT 25/13 A3013 RMK A01 T02520134  RH  048%=      5-min Rain = 0
KFR1 040453Z 05006KT 25/13 A3013 RMK A01 T02530133  RH  048%=      5-min Rain = 0
KFR1 040454Z 04007KT 25/13 A3013 RMK A01 T02530134  RH  048%=      5-min Rain = 0
KFR1 040455Z 04006KT 25/13 A3013 RMK A01 T02530134  RH  048%=      5-min Rain = 0
KFR1 040456Z 05008KT 25/14 A3013 RMK A01 T02530135  RH  048%=      5-min Rain = 0
KFR1 040457Z 05007KT 25/14 A3013 RMK A01 T02530135  RH  048%=      5-min Rain = 0
KFR1 040458Z 04009KT 25/14 A3013 RMK A01 T02520135  RH  048%=      5-min Rain = 0
KFR1 040459Z 04007KT 25/13 A3012 RMK A01 T02520134  RH  048%=      5-min Rain = 0

Page generated in 0.0722 seconds.